Date time Seconds Uvelocity_cm/s Vvelocity_cm/s W_velocity_cm/s horizontalSpeedCareful_cm/s TotalSpeedCareful_cm/s HorizontalWindDirection_deg WindElevation_deg SpeedOfSound_cm/sec Temperature_Kelvin Pressure_mb
2013 04 18 16 30 00 .61     226    133     12    263    264  59.6   2.8  34058  287.83 0867.44
2013 04 18 16 30 01 .87     160    115     -7    198    199  54.3  -2.2  34092  288.43 0867.43
2013 04 18 16 30 02 .13     170     76    -23    187    189  65.8  -7.2  34098  288.52 0867.43
2013 04 18 16 30 02 .38     227     74    -25    239    241  71.8  -6.0  34082  288.24 0867.43
2013 04 18 16 30 02 .63     239     74     -7    251    252  72.7  -1.6  34070  288.04 0867.43
2013 04 18 16 30 02 .88     280    171    -36    329    331  58.6  -6.3  34038  287.51 0867.43
2013 04 18 16 30 03 .13     278    163    -58    323    329  59.6 -10.2  34064  287.93 0867.43
2013 04 18 16 30 03 .38     271     87    -98    285    302  72.2 -19.1  34068  288.00 0867.43
2013 04 18 16 30 03 .63     169    -44     77    175    191 104.8  25.3  34070  288.04 0867.43
2013 04 18 16 30 03 .89      98     60     27    115    119  58.5  13.2  34066  287.99 0867.43
2013 04 18 16 30 04 .14     140      2     77    141    160  89.2  31.0  34072  288.09 0867.43
2013 04 18 16 30 04 .39     107    169     65    201    212  32.5  17.9  34076  288.14 0867.43
2013 04 18 16 30 04 .64      99     59     70    116    135  59.3  34.4  34078  288.18 0867.43
2013 04 18 16 30 04 .88      24     22     77     33     83  46.9  76.1  34098  288.52 0867.43
2013 04 18 16 30 05 .14      63     70     86     95    128  41.9  46.9  34082  288.26 0867.43
2013 04 18 16 30 05 .39     105     93     66    141    155  48.2  27.1  34074  288.13 0867.43
2013 04 18 16 30 05 .64      99     95      9    138    139  46.0   3.8  34076  288.14 0867.43
2013 04 18 16 30 05 .89     166     41     73    172    186  76.1  24.3  34076  288.14 0867.43
2013 04 18 16 30 06 .14     259     31     45    261    265  83.0   9.9  34082  288.26 0867.43
2013 04 18 16 30 06 .39     238      3     15    239    240  89.2   3.8  34078  288.19 0867.43
2013 04 18 16 30 06 .64     215     30    -16    218    219  81.9  -4.4  34076  288.16 0867.43
2013 04 18 16 30 06 .89     246    215    -52    327    332  48.8  -9.1  34050  287.72 0867.44
2013 04 18 16 30 07 .14     280    170     -2    328    329  58.7  -0.4  34066  287.97 0867.44
2013 04 18 16 30 07 .39     298     99     19    315    316  71.6   3.6  34066  287.97 0867.44
2013 04 18 16 30 07 .65     299    116    -58    321    327  68.7 -10.2  34032  287.39 0867.44
2013 04 18 16 30 07 .89     288     48    -82    292    304  80.5 -15.8  34046  287.65 0867.44
2013 04 18 16 30 08 .14     210     16   -112    211    238  85.6 -34.6  34060  287.87 0867.44
2013 04 18 16 30 08 .40     187    -41      1    192    193 102.6   0.5  34064  287.94 0867.44
2013 04 18 16 30 08 .65     164     14     70    165    179  84.8  24.1  34060  287.87 0867.44
2013 04 18 16 30 08 .90     122     33     67    127    143  74.9  30.3  34054  287.79 0867.44
2013 04 18 16 30 09 .16      65     30     90     72    115  64.6  56.4  34074  288.11 0867.44
2013 04 18 16 30 09 .41     136     54    116    147    187  68.2  42.7  34088  288.36 0867.44
2013 04 18 16 30 09 .66     189     66     66    201    212  70.7  18.4  34074  288.13 0867.44
2013 04 18 16 30 09 .91     219     99     34    241    244  65.6   8.2  34038  287.50 0867.44
2013 04 18 16 30 10 .16     243    124     -1    274    275  62.9  -0.3  34018  287.16 0867.44
2013 04 18 16 30 10 .41     242    153    -31    287    289  57.6  -6.2  34020  287.19 0867.44
2013 04 18 16 30 10 .66     265    178    -74    320    329  56.0 -13.1  34022  287.24 0867.44
2013 04 18 16 30 10 .91     289    188   -105    346    362  56.9 -17.0  34022  287.22 0867.44
2013 04 18 16 30 11 .16     304    238   -107    387    402  52.0 -15.5  34044  287.61 0867.44
2013 04 18 16 30 11 .41     368    160     20    402    403  66.5   2.9  34030  287.38 0867.44
2013 04 18 16 30 11 .67     352     36     13    354    355  84.1   2.2  34040  287.54 0867.44
2013 04 18 16 30 11 .91     178    310     37    358    360  29.9   5.9  34050  287.72 0867.44
2013 04 18 16 30 12 .16     152    305     12    341    342  26.5   2.1  34026  287.30 0867.44
2013 04 18 16 30 12 .42     154    224      3    273    274  34.5   0.7  34032  287.41 0867.44
2013 04 18 16 30 12 .67     247    263     -8    361    362  43.2  -1.4  34042  287.56 0867.44
2013 04 18 16 30 12 .92     262    283     19    387    388  42.8   2.9  34038  287.52 0867.44
2013 04 18 16 30 13 .17     243    259     -6    356    357  43.2  -1.1  34042  287.57 0867.44
2013 04 18 16 30 13 .42     221    197     64    297    304  48.2  12.2  34044  287.61 0867.44
2013 04 18 16 30 13 .67     340    187     31    388    390  61.2   4.6  34052  287.76 0867.44
2013 04 18 16 30 13 .92     327    198     11    383    384  58.8   1.7  34028  287.34 0867.44
2013 04 18 16 30 14 .17     334    179     79    379    388  61.8  11.8  34042  287.57 0867.45
2013 04 18 16 30 14 .42     306    193     64    363    369  57.7  10.0  34022  287.23 0867.45
2013 04 18 16 30 14 .67     278    175     51    329    333  57.8   8.8  34032  287.39 0867.45
2013 04 18 16 30 14 .95     281    280    -15    398    399  45.1  -2.2  34022  287.25 0867.45
2013 04 18 16 30 15 .17     206    303     15    367    368  34.2   2.4  34034  287.45 0867.45
2013 04 18 16 30 15 .42     173    173    105    246    267  45.0  24.3  34040  287.53 0867.45
2013 04 18 16 30 15 .67     286    248     66    379    385  49.1  10.0  34024  287.27 0867.45
2013 04 18 16 30 15 .92     312    199     12    371    372  57.5   1.9  34022  287.23 0867.45
2013 04 18 16 30 16 .19     248    157    139    294    325  57.6  27.1  34028  287.33 0867.45
2013 04 18 16 30 16 .43     299    189    168    354    391  57.7  27.3  34022  287.22 0867.45
2013 04 18 16 30 16 .68     286    193    158    346    380  55.9  26.4  34022  287.25 0867.45
2013 04 18 16 30 16 .94     204    306     79    369    378  33.7  12.1  34032  287.42 0867.45
2013 04 18 16 30 17 .19     212    206     80    296    307  45.8  15.2  34036  287.48 0867.45
2013 04 18 16 30 17 .44     157    226    133    276    306  34.7  27.3  34042  287.56 0867.45
2013 04 18 16 30 17 .69     144    186    108    236    259  37.8  26.2  34042  287.58 0867.44
2013 04 18 16 30 17 .94     294    142     54    327    332  64.2   9.5  34038  287.51 0867.44
2013 04 18 16 30 18 .19     254    223    -94    339    352  48.7 -15.5  34026  287.30 0867.44
2013 04 18 16 30 18 .44     213    192    -59    288    295  48.0 -11.6  34020  287.19 0867.44
2013 04 18 16 30 18 .69     202    187    -45    276    280  47.1  -9.4  34020  287.19 0867.44
2013 04 18 16 30 18 .94     197    179    -34    267    270  47.7  -7.3  34020  287.19 0867.44
2013 04 18 16 30 19 .19     201    182    -24    272    274  47.8  -5.2  34022  287.22 0867.44
2013 04 18 16 30 19 .44     193    171    -23    259    261  48.4  -5.2  34020  287.19 0867.44
2013 04 18 16 30 19 .69     166    164    -16    234    235  45.3  -4.1  34022  287.22 0867.44
2013 04 18 16 30 19 .94     196    165      3    257    258  49.8   0.8  34020  287.19 0867.44
2013 04 18 16 30 20 .19     221    178     14    284    285  51.1   2.9  34018  287.16 0867.44
2013 04 18 16 30 20 .44     243    134     -1    278    279  61.2  -0.3  34020  287.21 0867.44
2013 04 18 16 30 20 .69     189    155    -22    245    247  50.5  -5.2  34020  287.21 0867.44
2013 04 18 16 30 20 .94     173    162     10    238    239  46.9   2.5  34018  287.16 0867.44
2013 04 18 16 30 21 .19     190    163     -1    251    252  49.3  -0.3  34018  287.17 0867.44
2013 04 18 16 30 21 .45     200    160    -10    257    258  51.4  -2.2  34022  287.22 0867.44
2013 04 18 16 30 21 .70     225    176      4    286    287  52.0   1.0  34034  287.43 0867.44
2013 04 18 16 30 21 .95     208    178      7    274    275  49.5   1.6  34044  287.61 0867.44
2013 04 18 16 30 22 .20     213    181      8    280    281  49.6   1.8  34034  287.44 0867.44
2013 04 18 16 30 22 .45     189    159      3    248    249  50.0   0.8  34028  287.34 0867.44
2013 04 18 16 30 22 .70     195    154     12    249    250  51.8   2.9  34024  287.26 0867.44
2013 04 18 16 30 22 .96     204    134     -7    245    246  56.7  -1.8  34022  287.24 0867.44
2013 04 18 16 30 23 .21     200    127     -9    237    238  57.6  -2.2  34022  287.24 0867.44
2013 04 18 16 30 23 .46     224    137     -7    263    264  58.5  -1.6  34020  287.19 0867.44
2013 04 18 16 30 23 .71     266    126    -21    295    296  64.5  -4.1  34028  287.34 0867.44
2013 04 18 16 30 23 .96     298    149     65    334    341  63.5  11.1  34022  287.25 0867.44
2013 04 18 16 30 24 .21     322    157    112    359    377  63.9  17.3  34024  287.27 0867.44
2013 04 18 16 30 24 .46     294    133    156    323    358  65.6  27.7  34026  287.29 0867.44
2013 04 18 16 30 24 .71     250    103    114    271    294  67.6  24.1  34032  287.41 0867.44
2013 04 18 16 30 24 .96     173    110     61    206    215  57.4  16.6  34032  287.40 0867.44
2013 04 18 16 30 25 .21     144     42     74    151    168  73.6  27.8  34034  287.45 0867.44
2013 04 18 16 30 25 .46     147     26     67    150    164  79.9  25.7  34042  287.57 0867.44
2013 04 18 16 30 25 .72     267    226     43    351    354  49.7   7.1  34026  287.32 0867.44
2013 04 18 16 30 25 .96     248    276     -8    372    373  41.9  -1.3  34018  287.18 0867.45
2013 04 18 16 30 26 .22     248    254    -24    355    356  44.3  -4.0  34022  287.23 0867.45
2013 04 18 16 30 26 .47     251    227    -35    339    341  47.9  -5.9  34018  287.17 0867.45
2013 04 18 16 30 26 .72     273    194    103    336    352  54.6  17.1  34034  287.44 0867.45
2013 04 18 16 30 26 .97     173    105      8    203    204  58.7   2.5  34032  287.42 0867.45
2013 04 18 16 30 27 .22     198    158     65    254    263  51.4  14.5  34034  287.44 0867.45
2013 04 18 16 30 27 .47      89    188     41    209    214  25.5  11.1  34040  287.54 0867.45
2013 04 18 16 30 27 .72     258    175    109    313    332  55.8  19.3  34042  287.56 0867.44
2013 04 18 16 30 27 .97     183    119    115    219    247  56.9  30.1  34036  287.46 0867.44
2013 04 18 16 30 28 .22     261    177      2    316    317  55.8   0.5  34028  287.33 0867.44
2013 04 18 16 30 28 .47     292    139     36    324    327  64.5   6.4  34028  287.34 0867.44
2013 04 18 16 30 28 .72     368    160     26    402    403  66.5   3.7  34022  287.24 0867.44
2013 04 18 16 30 28 .97     206    224    -64    305    312  42.5 -12.0  34034  287.43 0867.44
2013 04 18 16 30 29 .22     227    206    -22    307    308  47.8  -4.1  34020  287.19 0867.44
2013 04 18 16 30 29 .47     244    201    -19    317    318  50.5  -3.5  34018  287.17 0867.44
2013 04 18 16 30 29 .72     241    205    -21    317    318  49.6  -3.9  34020  287.19 0867.44
2013 04 18 16 30 29 .98     228    188    -27    296    298  50.5  -5.4  34024  287.28 0867.44
2013 04 18 16 30 30 .23     190    157    -40    247    251  50.5  -9.4  34028  287.33 0867.44
2013 04 18 16 30 30 .49      83    148    -28    170    173  29.4  -9.6  34028  287.35 0867.44
2013 04 18 16 30 30 .74      96     53    134    110    173  61.1  56.4  34026  287.30 0867.44
2013 04 18 16 30 30 .98     138     45    174    146    227  71.8  56.1  34032  287.42 0867.44
2013 04 18 16 30 31 .24     166     25    140    168    218  81.2  43.8  34036  287.47 0867.44
2013 04 18 16 30 31 .49     128     43     46    136    144  71.4  18.9  34030  287.38 0867.44
2013 04 18 16 30 31 .74     118    143    -13    186    187  39.7  -4.1  34038  287.50 0867.44
2013 04 18 16 30 31 .99     173    163     29    238    240  46.7   7.1  34034  287.44 0867.44
2013 04 18 16 30 32 .24     204     96     98    226    246  64.8  25.1  34030  287.38 0867.44
2013 04 18 16 30 32 .49     220    103     85    244    259  64.9  19.2  34038  287.51 0867.44
2013 04 18 16 30 32 .74     284    124     51    311    316  66.4   9.4  34026  287.29 0867.44
2013 04 18 16 30 32 .99     299    122     11    323    324  67.8   2.1  34030  287.36 0867.44
2013 04 18 16 30 33 .24     264    123    -42    292    296  64.9  -8.3  34024  287.28 0867.45
2013 04 18 16 30 33 .50     207    130     18    245    246  57.8   4.4  34032  287.41 0867.45
2013 04 18 16 30 33 .74      69    207     14    219    220  18.5   3.8  34034  287.43 0867.45
2013 04 18 16 30 33 .99     187    206    -33    279    282  42.3  -6.9  34020  287.21 0867.45
2013 04 18 16 30 34 .25     192    170    -32    257    260  48.6  -7.2  34024  287.28 0867.45
2013 04 18 16 30 34 .50     180    136    -49    226    232  52.9 -12.4  34028  287.33 0867.45
2013 04 18 16 30 34 .75     215    169    -92    274    290  51.8 -18.6  34032  287.39 0867.45
2013 04 18 16 30 34 .99     230    190    -50    299    304  50.5  -9.6  34022  287.24 0867.45
2013 04 18 16 30 35 .25     180    186    -39    260    263  44.1  -8.6  34020  287.19 0867.45
2013 04 18 16 30 35 .50      28    206      0    208    209   7.8   0.0  34028  287.33 0867.45
2013 04 18 16 30 35 .75     -17    152     68    154    168 353.3  25.3  34026  287.30 0867.45
2013 04 18 16 30 36 .00      94     80    110    124    165  49.6  46.4  34040  287.55 0867.45
2013 04 18 16 30 36 .25     193    126    102    231    252  56.9  25.2  34032  287.39 0867.45
2013 04 18 16 30 36 .50     283    130     65    312    319  65.2  11.8  34024  287.28 0867.45
2013 04 18 16 30 36 .75     315    165     20    356    357  62.2   3.2  34022  287.25 0867.45
2013 04 18 16 30 37 .01     321    215    -15    387    388  56.1  -2.2  34022  287.23 0867.44
2013 04 18 16 30 37 .26     304    202      7    366    367  56.4   1.1  34022  287.23 0867.44
2013 04 18 16 30 37 .52     300    148     82    335    345  63.7  13.8  34032  287.42 0867.44
2013 04 18 16 30 37 .76     289    178     62    340    346  58.3  10.3  34030  287.37 0867.44
2013 04 18 16 30 38 .01     304    171     34    350    352  60.6   5.7  34022  287.22 0867.44
2013 04 18 16 30 38 .26     332    157     61    368    374  64.6   9.5  34022  287.23 0867.44
2013 04 18 16 30 38 .51     292    141     87    325    337  64.2  15.0  34022  287.23 0867.44
2013 04 18 16 30 38 .77     279    115    116    302    323  67.6  22.2  34034  287.43 0867.44
2013 04 18 16 30 39 .02     197    109    133    226    262  60.9  33.4  34042  287.56 0867.44
2013 04 18 16 30 39 .26     216    127     71    251    261  59.6  15.8  34022  287.24 0867.44
2013 04 18 16 30 39 .52     263    157     50    307    312  59.1   9.3  34028  287.33 0867.44
2013 04 18 16 30 39 .76     261    163     56    308    314  58.0  10.3  34024  287.26 0867.44
2013 04 18 16 30 40 .02     271    158     44    314    318  59.8   8.1  34024  287.28 0867.44
2013 04 18 16 30 40 .27     257    151     46    299    303  59.6   8.9  34024  287.28 0867.44
2013 04 18 16 30 40 .52     246    135     55    281    287  61.1  11.1  34024  287.28 0867.44
2013 04 18 16 30 40 .77     219    139     89    260    275  57.6  18.9  34024  287.28 0867.44
2013 04 18 16 30 41 .02     234    160     77    284    295  55.6  15.3  34020  287.21 0867.44
2013 04 18 16 30 41 .27     238    142     33    278    281  59.3   6.9  34026  287.29 0867.44
2013 04 18 16 30 41 .52     241    153     15    286    287  57.6   3.1  34022  287.24 0867.43
2013 04 18 16 30 41 .77     230    133     14    266    267  60.0   3.1  34028  287.33 0867.43
2013 04 18 16 30 42 .02     221    146     26    266    268  56.5   5.7  34024  287.28 0867.43
2013 04 18 16 30 42 .27     207    148     35    255    258  54.5   7.8  34022  287.24 0867.43
2013 04 18 16 30 42 .52     200    149     63    250    258  53.2  14.3  34024  287.28 0867.43
2013 04 18 16 30 42 .77     239    109     33    263    266  65.4   7.2  34026  287.29 0867.43
2013 04 18 16 30 43 .02     246     89     41    262    266  70.0   9.0  34024  287.26 0867.43
2013 04 18 16 30 43 .28     237    105     46    260    265  66.0  10.1  34024  287.28 0867.44
2013 04 18 16 30 43 .52     250    105     43    272    276  67.2   9.0  34028  287.33 0867.44
2013 04 18 16 30 43 .79     245     98     33    265    268  68.2   7.2  34022  287.24 0867.44
2013 04 18 16 30 44 .04     234     94     44    253    257  68.2  10.0  34022  287.24 0867.44
2013 04 18 16 30 44 .29     256    105     51    277    282  67.6  10.6  34024  287.26 0867.44
2013 04 18 16 30 44 .54     251     84     62    265    273  71.4  13.2  34026  287.31 0867.44
2013 04 18 16 30 44 .79     239     82     65    253    262  70.9  14.5  34026  287.29 0867.44
2013 04 18 16 30 45 .04     241     74     44    253    257  72.9   9.9  34022  287.24 0867.44
2013 04 18 16 30 45 .29     227     53     19    234    235  76.7   4.9  34026  287.29 0867.44
2013 04 18 16 30 45 .54     203     79     40    218    222  68.7  10.6  34024  287.28 0867.44
2013 04 18 16 30 45 .79     206     73     27    219    221  70.3   7.1  34024  287.27 0867.44
2013 04 18 16 30 46 .04     211     81     37    227    231  68.9   9.3  34024  287.27 0867.44
2013 04 18 16 30 46 .27     198     82     22    215    217  67.6   5.9  34024  287.27 0867.44
2013 04 18 16 30 46 .52     208     85     29    225    227  67.6   7.5  34024  287.28 0867.44
2013 04 18 16 30 46 .78     216     70     -5    228    229  72.1  -1.3  34024  287.28 0867.44
2013 04 18 16 30 47 .03     199     70     -8    212    213  70.5  -2.2  34024  287.28 0867.44
2013 04 18 16 30 47 .28     190     54     -4    198    199  74.1  -1.3  34024  287.28 0867.44
2013 04 18 16 30 47 .53     179     43    -23    185    187  76.5  -7.3  34020  287.21 0867.44
2013 04 18 16 30 47 .79     168     49    -23    176    178  73.6  -7.7  34026  287.32 0867.44
2013 04 18 16 30 48 .03     137     69      2    154    155  63.0   0.8  34024  287.28 0867.44
2013 04 18 16 30 48 .29     152    100      8    183    184  56.5   2.8  34030  287.37 0867.44
2013 04 18 16 30 48 .54     140     93     17    169    170  56.3   5.9  34030  287.38 0867.44
2013 04 18 16 30 48 .79     140     71      4    158    159  62.9   1.6  34032  287.42 0867.44
2013 04 18 16 30 49 .04     123     82    -13    148    149  56.3  -5.2  34034  287.45 0867.44
2013 04 18 16 30 49 .29     153     74    -53    171    180  64.0 -17.3  34034  287.43 0867.44
2013 04 18 16 30 49 .54     155     75    -38    173    178  64.0 -12.4  34034  287.43 0867.44
2013 04 18 16 30 49 .79     119     30     -6    123    124  75.8  -3.2  34038  287.50 0867.44
2013 04 18 16 30 50 .04     188     61    -46    198    204  71.8 -13.2  34038  287.52 0867.44
2013 04 18 16 30 50 .29     160     76      3    178    179  64.6   1.0  34036  287.47 0867.44
2013 04 18 16 30 50 .54     136    116    -23    179    181  49.6  -7.5  34038  287.52 0867.44
2013 04 18 16 30 50 .79     129    154     52    202    209  39.9  14.7  34030  287.38 0867.44
2013 04 18 16 30 51 .04     161    136     85    212    228  49.8  23.0  34032  287.42 0867.44
2013 04 18 16 30 51 .29     165    119     83    204    220  54.0  23.1  34034  287.43 0867.44
2013 04 18 16 30 51 .55     152     91     63    178    189  59.1  19.6  34036  287.47 0867.44
2013 04 18 16 30 51 .79      88     86     42    124    132  45.6  18.9  34036  287.49 0867.44
2013 04 18 16 30 52 .04      55     56      4     79     80  44.2   2.9  34030  287.38 0867.44
2013 04 18 16 30 52 .30      67     49    106     84    135  53.6  57.5  34038  287.50 0867.44
2013 04 18 16 30 52 .54      86     88    134    124    182  44.5  52.2  34048  287.67 0867.44
2013 04 18 16 30 52 .80      74    109     83    132    155  34.3  35.5  34044  287.60 0867.44
2013 04 18 16 30 53 .05      64     85     54    107    119  37.4  29.2  34036  287.47 0867.44
2013 04 18 16 30 53 .30      86    102     47    134    143  40.1  19.4  34036  287.47 0867.44
2013 04 18 16 30 53 .55      76    102     14    128    129  36.5   6.5  34036  287.49 0867.44
2013 04 18 16 30 53 .81      15     79     12     81     83  10.7   9.0  34032  287.42 0867.44
2013 04 18 16 30 54 .06      76     88     45    117    125  40.5  22.0  34042  287.57 0867.45
2013 04 18 16 30 54 .31      72     59     57     94    109  50.5  34.4  34038  287.50 0867.45
2013 04 18 16 30 54 .56      92     47     10    104    105  62.9   5.9  34046  287.64 0867.45
2013 04 18 16 30 54 .81      64     66     32     92     98  44.1  19.4  34048  287.67 0867.45
2013 04 18 16 30 55 .06     103     97      1    142    143  46.9   0.7  34038  287.52 0867.45
2013 04 18 16 30 55 .31      90     81     33    122    127  47.8  15.2  34042  287.57 0867.45
2013 04 18 16 30 55 .56      67     71     50     98    110  43.2  28.7  34042  287.57 0867.45
2013 04 18 16 30 55 .81      77     72     39    106    112  46.8  20.4  34036  287.49 0867.45
2013 04 18 16 30 56 .06      90     81     33    122    127  47.8  15.2  34042  287.57 0867.45
2013 04 18 16 30 56 .31      66     56     22     87     90  49.6  14.3  34042  287.57 0867.45
2013 04 18 16 30 56 .56      59     37     39     70     80  57.6  31.4  34044  287.60 0867.45
2013 04 18 16 30 56 .81      34     55     32     65     72  31.6  27.3  34044  287.62 0867.45
2013 04 18 16 30 57 .07      45     28     -3     54     55  57.6  -3.1  34044  287.60 0867.45
2013 04 18 16 30 57 .32      62     71    -23     95     98  41.0 -13.9  34040  287.54 0867.45
2013 04 18 16 30 57 .57      25     51    -20     57     60  26.3 -23.3  34038  287.52 0867.45
2013 04 18 16 30 57 .82      29     25      0     39     40  48.7   0.8  34036  287.49 0867.45
2013 04 18 16 30 58 .07      25     24      3     35     36  46.7   4.9  34052  287.74 0867.45
2013 04 18 16 30 58 .32      15      9     16     18     24  57.6  50.0  34052  287.76 0867.45
2013 04 18 16 30 58 .57      21      1     41     22     46  85.6  69.8  34064  287.94 0867.45
2013 04 18 16 30 58 .82       4      0     32      5     32  90.0  90.0  34088  288.36 0867.45
2013 04 18 16 30 59 .07      -4     -3     21      6     21 230.5  84.9  34112  288.77 0867.45
2013 04 18 16 30 59 .32      24      1     39     25     46  85.6  64.6  34078  288.18 0867.45
2013 04 18 16 30 59 .57      -2     -8     30      9     31 198.5  82.8  34090  288.40 0867.45
2013 04 18 16 30 59 .82       0      5     27      6     27 357.3  89.0  34092  288.42 0867.45
2013 04 18 16 31 00 .07       7      7     21     11     23  45.0  70.8  34076  288.16 0867.45
2013 04 18 16 31 00 .33     -15    -13     25     20     32 228.7  56.4  34100  288.55 0867.45
2013 04 18 16 31 00 .57     -10    -20     37     23     43 207.2  64.7  34118  288.86 0867.44
2013 04 18 16 31 00 .83      -8    -12     29     15     32 212.6  70.8  34096  288.50 0867.44
2013 04 18 16 31 01 .09     -13    -21     33     25     41 212.5  58.5  34100  288.55 0867.44
2013 04 18 16 31 01 .33       4     -7     32      9     33 147.5  82.8  34098  288.53 0867.44
2013 04 18 16 31 01 .59      19    -10     45     22     50 117.1  72.8  34082  288.26 0867.44
2013 04 18 16 31 01 .84       0     -8     48      9     48 175.5  90.0  34100  288.55 0867.44
2013 04 18 16 31 02 .08      13     -8     47     16     49 122.4  81.0  34078  288.18 0867.44
2013 04 18 16 31 02 .34      57    -26     60     63     87 114.4  49.0  34066  287.98 0867.44
2013 04 18 16 31 02 .59      83    -55     47    100    110 123.7  27.1  34056  287.81 0867.44
2013 04 18 16 31 02 .84      72    -46     38     86     94 122.5  25.1  34046  287.65 0867.44
2013 04 18 16 31 03 .09      39    -36     25     54     59 133.1  26.2  34046  287.65 0867.44
2013 04 18 16 31 03 .34      37    -32     29     50     57 131.3  33.5  34058  287.86 0867.44
2013 04 18 16 31 03 .59      15     -5     50     16     52 108.6  80.7  34082  288.26 0867.44
2013 04 18 16 31 03 .84      55     14     74     57     93  74.9  57.9  34068  288.03 0867.44
2013 04 18 16 31 04 .09     116    -36     54    122    133 107.3  25.2  34050  287.72 0867.44
2013 04 18 16 31 04 .34     112    -45     44    121    128 112.2  20.9  34054  287.77 0867.44
2013 04 18 16 31 04 .59     117    -38     27    124    128 108.2  12.6  34034  287.43 0867.44
2013 04 18 16 31 04 .84     111    -37      5    118    119 108.6   2.8  34038  287.52 0867.44
2013 04 18 16 31 05 .09     118    -36    -25    124    127 106.9 -11.5  34030  287.38 0867.44
2013 04 18 16 31 05 .34     108    -59    -13    124    125 118.9  -6.2  34014  287.10 0867.44
2013 04 18 16 31 05 .60     118    -48     -5    128    129 112.2  -2.6  34002  286.89 0867.44
2013 04 18 16 31 05 .84     127    -42     -2    135    136 108.6  -1.3  33998  286.84 0867.43
2013 04 18 16 31 06 .10     104    -46     -7    114    115 114.0  -3.7  34004  286.94 0867.43
2013 04 18 16 31 06 .35     112    -44      6    121    122 111.7   3.3  34008  287.01 0867.43
2013 04 18 16 31 06 .60     117    -35     10    123    124 106.9   4.9  34012  287.08 0867.43
2013 04 18 16 31 06 .85     114    -31      0    119    120 105.5   0.2  34010  287.03 0867.43
2013 04 18 16 31 07 .10     111    -33      5    116    117 106.8   2.8  34010  287.05 0867.43
2013 04 18 16 31 07 .35     116    -15     14    117    118  97.5   6.9  34010  287.05 0867.43
2013 04 18 16 31 07 .60     101    -32      1    106    107 107.7   0.8  33998  286.83 0867.43
2013 04 18 16 31 07 .86      87    -34     -5     94     95 111.3  -3.1  33996  286.81 0867.44
2013 04 18 16 31 08 .11      88    -23     -4     92     93 105.1  -2.6  34002  286.89 0867.44
2013 04 18 16 31 08 .36      78    -15    -13     80     82 101.5  -9.8  34002  286.91 0867.44
2013 04 18 16 31 08 .61      81      0     13     82     84  90.0   9.0  34022  287.25 0867.44
2013 04 18 16 31 08 .86      83     10     15     84     86  83.0  10.1  34018  287.18 0867.44
2013 04 18 16 31 09 .11      49     -3     17     50     53  94.4  18.9  34034  287.45 0867.44
2013 04 18 16 31 09 .36      49     -7      0     50     51  98.8  -0.3  34028  287.33 0867.44
2013 04 18 16 31 09 .61      43    -17     20     47     51 111.7  24.1  34028  287.33 0867.44
2013 04 18 16 31 09 .87      26    -21     25     34     42 129.5  40.7  34034  287.43 0867.44
2013 04 18 16 31 10 .11      34      0     37     35     50  90.0  51.2  34044  287.60 0867.44
2013 04 18 16 31 10 .36      41     14     21     44     48  71.4  26.2  34050  287.70 0867.44
2013 04 18 16 31 10 .61      46      8     14     47     50  79.4  16.3  34044  287.62 0867.44
2013 04 18 16 31 10 .87      48      1     20     49     52  88.3  23.0  34042  287.59 0867.44
2013 04 18 16 31 11 .11      62      0     22     63     67  90.0  19.2  34038  287.52 0867.44
2013 04 18 16 31 11 .37      92     -3      8     93     94  92.1   5.4  34024  287.28 0867.43
2013 04 18 16 31 11 .62     123      0     -4    124    125  90.4  -2.2  34014  287.10 0867.43
2013 04 18 16 31 11 .87      92    -30     -5     97     98 108.2  -3.2  33998  286.83 0867.43
2013 04 18 16 31 12 .12      97      7    -10     98     99  85.7  -6.2  34024  287.27 0867.43
2013 04 18 16 31 12 .37      81    -12    -27     82     86  98.8 -23.8  34006  286.96 0867.43
2013 04 18 16 31 12 .62      76    -13    -24     78     82  99.7 -17.6  34014  287.11 0867.43
2013 04 18 16 31 12 .87      81    -26     -3     86     87 108.2  -2.6  34034  287.43 0867.43
2013 04 18 16 31 13 .12      64      4    -13     65     67  85.6 -11.5  34022  287.23 0867.43
2013 04 18 16 31 13 .37      58    -15      4     61     62 105.0   3.8  34026  287.30 0867.43
2013 04 18 16 31 13 .62      37      2      4     38     39  85.7   5.9  34026  287.32 0867.43
2013 04 18 16 31 13 .88      36     -7     -4     37     38 101.5  -7.2  34034  287.45 0867.43
2013 04 18 16 31 14 .13      36      6     16     37     40  80.3  25.1  34042  287.59 0867.43
2013 04 18 16 31 14 .38       4     -8     32     10     33 151.0  80.7  34096  288.48 0867.43
2013 04 18 16 31 14 .64      -5      2     34      6     34 295.3  90.0  34122  288.92 0867.43
2013 04 18 16 31 14 .88       3      0     46      4     46  90.0  90.0  34108  288.69 0867.43
2013 04 18 16 31 15 .14       7     -3     48      8     48 115.3  90.0  34090  288.40 0867.43
2013 04 18 16 31 15 .39      14      8     49     17     51  61.1  81.2  34090  288.38 0867.43
2013 04 18 16 31 15 .63      25     -5     38     26     46 101.5  62.6  34074  288.13 0867.43
2013 04 18 16 31 15 .89      17      0     45     18     48  90.0  79.2  34082  288.26 0867.43
2013 04 18 16 31 16 .14      18     -7     39     20     43 111.7  71.9  34094  288.45 0867.43
2013 04 18 16 31 16 .39      34    -12     28     37     46 110.0  40.7  34076  288.16 0867.43
2013 04 18 16 31 16 .64      27     -9     41     29     50 108.4  61.5  34066  287.99 0867.43
2013 04 18 16 31 16 .89      28      6     41     29     50  76.7  61.5  34070  288.04 0867.43
2013 04 18 16 31 17 .14      25     -2     45     26     51  96.1  67.7  34076  288.16 0867.43
2013 04 18 16 31 17 .39      38    -16     36     42     55 113.5  44.8  34058  287.84 0867.43
2013 04 18 16 31 17 .64      23    -18     42     30     51 127.8  60.5  34080  288.23 0867.43
2013 04 18 16 31 17 .89      18    -49     58     53     78 160.0  52.2  34070  288.06 0867.43
2013 04 18 16 31 18 .14      19    -24     45     31     54 142.2  62.6  34076  288.14 0867.43
2013 04 18 16 31 18 .39      35      1     48     36     60  87.4  59.4  34080  288.23 0867.43
2013 04 18 16 31 18 .65      32    -20     56     39     68 122.5  61.5  34074  288.13 0867.43
2013 04 18 16 31 18 .89       5    -16     45     17     48 161.3  80.2  34082  288.26 0867.43
2013 04 18 16 31 19 .15      17    -36     44     40     59 154.6  52.2  34090  288.38 0867.43
2013 04 18 16 31 19 .39       5    -24     32     25     40 168.4  58.5  34086  288.31 0867.43
2013 04 18 16 31 19 .65       5    -24     25     25     35 168.4  50.1  34072  288.08 0867.43
2013 04 18 16 31 19 .90      17    -18     25     25     35 136.6  50.1  34058  287.86 0867.43
2013 04 18 16 31 20 .15      17    -18     25     25     35 136.6  50.1  34066  287.98 0867.43
2013 04 18 16 31 20 .40       3      0     16      4     16  90.0  84.9  34070  288.06 0867.43
2013 04 18 16 31 20 .65     -12    -24     34     27     43 207.2  57.5  34078  288.18 0867.43
2013 04 18 16 31 20 .90      -2    -26     31     27     41 184.5  54.3  34070  288.06 0867.43
2013 04 18 16 31 21 .15       0      0     26      0     26   0.0 -90.0  34092  288.43 0867.43
2013 04 18 16 31 21 .40       0      5     20      6     20 357.3  82.8  34100  288.57 0867.42
2013 04 18 16 31 21 .66       0      3     17      4     17 355.5  89.0  34102  288.60 0867.42
2013 04 18 16 31 21 .91      23      0     42     24     48  90.0  66.8  34084  288.30 0867.42
2013 04 18 16 31 22 .17      29      2     49     30     57  85.7  64.7  34064  287.94 0867.42
2013 04 18 16 31 22 .41       3    -48     65     49     81 175.5  59.0  34046  287.65 0867.42
2013 04 18 16 31 22 .66     -10    -22     64     25     68 203.6  79.2  34072  288.09 0867.42
2013 04 18 16 31 22 .92       2    -35     56     36     66 175.6  64.6  34056  287.82 0867.42
2013 04 18 16 31 23 .16     -11    -58     56     60     82 190.7  48.5  34030  287.38 0867.42
2013 04 18 16 31 23 .42     -18    -67     68     70     97 195.2  50.5  34022  287.25 0867.42
2013 04 18 16 31 23 .67       6    -39     59     40     71 170.2  63.6  34060  287.87 0867.42
2013 04 18 16 31 23 .91      25    -52     45     58     73 153.7  42.7  34044  287.62 0867.42
2013 04 18 16 31 24 .17      22    -53     21     58     61 157.3  20.0  34040  287.54 0867.42
2013 04 18 16 31 24 .42       8    -63     -7     64     65 172.0  -6.2  34036  287.47 0867.42
2013 04 18 16 31 24 .67      19    -74    -41     77     87 165.7 -34.7  34044  287.60 0867.42
2013 04 18 16 31 24 .92      59    -62    -30     86     91 136.3 -23.8  34022  287.25 0867.42
2013 04 18 16 31 25 .17      52    -74    -30     91     95 144.8 -23.8  34022  287.25 0867.42
2013 04 18 16 31 25 .42      35    -84    -30     92     97 157.3 -18.1  34024  287.28 0867.42
2013 04 18 16 31 25 .67      45    -78    -12     91     92 149.7  -7.7  34032  287.42 0867.42
2013 04 18 16 31 25 .92      40    -54    -21     68     71 143.0 -22.8  34032  287.42 0867.42
2013 04 18 16 31 26 .18      62    -20     -2     66     67 108.2  -2.2  34054  287.77 0867.42
2013 04 18 16 31 26 .42      44    -37     -5     58     59 130.4  -5.2  34048  287.67 0867.42
2013 04 18 16 31 26 .67      33    -40     -2     52     53 140.4  -3.1  34036  287.49 0867.42
2013 04 18 16 31 26 .92      41     -7    -12     42     43 100.6 -21.7  34042  287.57 0867.42
2013 04 18 16 31 27 .18      65    -13     -3     67     68 101.5  -3.1  34056  287.81 0867.42
2013 04 18 16 31 27 .42      64     30     -5     71     72  64.8  -4.1  34054  287.77 0867.42
2013 04 18 16 31 27 .68      37    -23    -38     44     58 121.5 -50.2  34044  287.62 0867.42
2013 04 18 16 31 27 .92      57    -35    -32     68     75 121.5 -31.6  34024  287.28 0867.42
2013 04 18 16 31 28 .18      59    -16    -34     62     70 105.1 -35.8  34022  287.25 0867.42
2013 04 18 16 31 28 .43      37    -40      0     55     56 136.8   0.8  34036  287.49 0867.42
2013 04 18 16 31 28 .69      62    -43     24     76     80 125.1  17.9  34050  287.70 0867.41
2013 04 18 16 31 28 .94      87    -48     26    100    104 118.9  14.7  34056  287.81 0867.41
2013 04 18 16 31 29 .19      77    -28     11     83     84 110.4   8.0  34050  287.72 0867.41
2013 04 18 16 31 29 .44      74    -35     19     82     85 115.3  13.2  34042  287.59 0867.41
2013 04 18 16 31 29 .69      55    -45     38     72     81 129.6  30.3  34052  287.76 0867.41
2013 04 18 16 31 29 .94      59    -42     40     73     83 125.9  30.8  34050  287.72 0867.41
2013 04 18 16 31 30 .19      78    -31     29     85     90 111.7  18.9  34044  287.60 0867.41
2013 04 18 16 31 30 .44      58    -27     26     65     70 115.3  23.0  34046  287.64 0867.41
2013 04 18 16 31 30 .69      59    -19     23     63     67 108.2  20.0  34044  287.62 0867.41
2013 04 18 16 31 30 .95      57    -25     22     63     67 113.5  19.4  34048  287.69 0867.41
2013 04 18 16 31 31 .19      34    -23     24     42     48 124.2  33.5  34046  287.65 0867.41
2013 04 18 16 31 31 .44      25    -17     16     31     34 124.2  29.3  34046  287.64 0867.42
2013 04 18 16 31 31 .69       0    -13     10     14     17 180.9  39.7  34048  287.67 0867.42
2013 04 18 16 31 31 .95     -15    -13     18     20     26 228.7  50.0  34050  287.72 0867.42
2013 04 18 16 31 32 .20      -7    -15     39     17     42 205.4  75.0  34078  288.18 0867.42
2013 04 18 16 31 32 .44     -14    -37     38     40     55 201.8  50.0  34062  287.92 0867.42
2013 04 18 16 31 32 .70     -15    -24     29     29     41 212.6  50.1  34056  287.81 0867.42
2013 04 18 16 31 32 .95      -2    -30      9     31     33 184.5  17.3  34048  287.67 0867.42
2013 04 18 16 31 33 .20       3    -48     11     49     51 175.5  13.2  34046  287.65 0867.42
2013 04 18 16 31 33 .45       0    -46     14     47     50 179.1  16.3  34048  287.67 0867.42
2013 04 18 16 31 33 .70      -3    -47     30     48     56 184.4  35.5  34052  287.76 0867.42
2013 04 18 16 31 33 .95      20    -29     12     36     39 145.7  18.9  34064  287.94 0867.42
2013 04 18 16 31 34 .20      19    -32     31     38     49 149.3  43.7  34058  287.84 0867.41
2013 04 18 16 31 34 .45      26    -17     41     32     52 124.2  57.5  34066  287.98 0867.41
2013 04 18 16 31 34 .70      25     -2     38     26     46  96.1  62.6  34074  288.13 0867.41
2013 04 18 16 31 34 .95      23    -19     37     31     48 129.5  54.3  34086  288.31 0867.41
2013 04 18 16 31 35 .20      32    -32     25     46     52 135.8  30.3  34056  287.81 0867.41
2013 04 18 16 31 35 .45      36    -36      5     51     52 135.0   5.9  34052  287.76 0867.41
2013 04 18 16 31 35 .71      36     -7      1     37     38 101.5   2.8  34046  287.65 0867.41
2013 04 18 16 31 35 .96      43     16     -5     47     48  69.2  -6.2  34048  287.67 0867.42
2013 04 18 16 31 36 .21      23     13    -10     27     28  59.3 -23.3  34052  287.76 0867.42
2013 04 18 16 31 36 .47      35     21      9     42     43  58.5  12.2  34048  287.67 0867.42
2013 04 18 16 31 36 .72      43      3      9     44     46  85.6  12.2  34050  287.72 0867.42
2013 04 18 16 31 36 .97      36      7     16     37     40  78.6  25.1  34052  287.76 0867.42
2013 04 18 16 31 37 .22      27      4     27     28     38  80.3  52.0  34070  288.04 0867.42
2013 04 18 16 31 37 .47      16    -13     29     21     35 129.5  60.5  34096  288.50 0867.42
2013 04 18 16 31 37 .72       5    -16     32     17     36 161.3  70.8  34086  288.31 0867.42
2013 04 18 16 31 37 .97       6    -20     28     22     35 161.5  56.4  34072  288.09 0867.42
2013 04 18 16 31 38 .22       2    -19     30     20     36 173.8  64.6  34080  288.23 0867.42
2013 04 18 16 31 38 .47      15    -23     21     28     35 147.5  39.7  34078  288.18 0867.42
2013 04 18 16 31 38 .72       0    -23     21     24     31 180.9  45.8  34082  288.25 0867.42
2013 04 18 16 31 38 .97       2     -4     30      5     30 147.5  90.0  34094  288.45 0867.42
2013 04 18 16 31 39 .22      10      9     32     14     34  46.9  73.1  34112  288.75 0867.42
2013 04 18 16 31 39 .47      36     24     58     44     72  55.8  58.5  34048  287.69 0867.42
2013 04 18 16 31 39 .72      56     21     54     60     80  69.2  46.9  34048  287.67 0867.42
2013 04 18 16 31 39 .97      45     13     51     48     70  73.2  52.1  34034  287.43 0867.42
2013 04 18 16 31 40 .22      56     21     54     60     80  69.2  46.9  34036  287.47 0867.42
2013 04 18 16 31 40 .47      48     26     60     55     81  61.1  52.7  34038  287.50 0867.43
2013 04 18 16 31 40 .72      60     31     65     68     94  62.0  49.4  34036  287.49 0867.43
2013 04 18 16 31 40 .97      60     31     79     68    104  62.0  54.8  34040  287.55 0867.43
2013 04 18 16 31 41 .23      58     26     76     64     99  65.6  55.8  34042  287.57 0867.43
2013 04 18 16 31 41 .48      60     38     78     72    106  57.5  52.2  34034  287.43 0867.43
2013 04 18 16 31 41 .73      62     35     67     72     98  60.2  47.9  34038  287.52 0867.43
2013 04 18 16 31 41 .98      73     46     59     87    105  57.6  37.0  34038  287.52 0867.43
2013 04 18 16 31 42 .23      98     46     41    109    116  64.7  21.0  34038  287.52 0867.42
2013 04 18 16 31 42 .49     100     41     49    109    119  67.4  25.7  34042  287.57 0867.42
2013 04 18 16 31 42 .74      88     46     38    100    106  62.5  21.5  34044  287.60 0867.42
2013 04 18 16 31 42 .99      73     60     36     95    101  50.5  21.5  34034  287.45 0867.42
2013 04 18 16 31 43 .24      59     59     56     84    100  45.0  37.0  34028  287.33 0867.42
2013 04 18 16 31 43 .49      52     63     49     82     95  39.6  34.4  34022  287.25 0867.42
2013 04 18 16 31 43 .74      42     64     61     77     98  33.4  43.3  34022  287.23 0867.42
2013 04 18 16 31 44 .02      31     66     49     74     88  25.3  36.5  34016  287.15 0867.42
2013 04 18 16 31 44 .24      34     63     46     72     85  28.9  35.6  34022  287.25 0867.42
2013 04 18 16 31 44 .49      39     51     59     65     87  37.0  47.5  34028  287.33 0867.42
2013 04 18 16 31 44 .74      41     61     65     74     98  34.3  46.4  34030  287.38 0867.42
2013 04 18 16 31 45 .00      34     51     67     62     91  33.4  52.2  34044  287.62 0867.42
2013 04 18 16 31 45 .25      39     62     71     74    102  32.5  49.0  34040  287.54 0867.42
2013 04 18 16 31 45 .50      33     88     85     95    127  20.5  46.4  34036  287.47 0867.42
2013 04 18 16 31 45 .74      44     92     83    103    132  25.9  43.7  34022  287.23 0867.42
2013 04 18 16 31 46 .00      53     97     77    111    135  29.0  37.6  34026  287.32 0867.42
2013 04 18 16 31 46 .26      21    103     86    106    136  11.6  43.7  34026  287.30 0867.42
2013 04 18 16 31 46 .51      63     75     55     99    113  40.1  31.4  34010  287.03 0867.42
2013 04 18 16 31 46 .76      85     85     42    121    129  45.0  19.4  34012  287.06 0867.42
2013 04 18 16 31 47 .01      60     87     36    107    114  34.7  18.9  34010  287.05 0867.42
2013 04 18 16 31 47 .26      64     85     54    107    119  37.0  29.2  34010  287.05 0867.42
2013 04 18 16 31 47 .51      40     92     65    101    120  23.6  35.6  34016  287.13 0867.42
2013 04 18 16 31 47 .76     103     80     72    131    149  52.2  31.3  34014  287.10 0867.42
2013 04 18 16 31 48 .01      94     73     44    120    127  52.2  21.0  34012  287.06 0867.42
2013 04 18 16 31 48 .27      77    117     49    141    150  33.4  19.2  33994  286.78 0867.42
2013 04 18 16 31 48 .52      79    109     55    135    145  36.0  23.1  34000  286.88 0867.42
2013 04 18 16 31 48 .77      77     67     61    103    119  48.7  33.5  34012  287.08 0867.42
2013 04 18 16 31 49 .03      59     93     63    111    127  32.6  31.9  34010  287.05 0867.42
2013 04 18 16 31 49 .28      55    100     58    115    128  29.0  28.7  34014  287.10 0867.42
2013 04 18 16 31 49 .52      49     87     51    100    112  29.4  28.7  34018  287.18 0867.42
2013 04 18 16 31 49 .78      64     76     74    100    124  40.5  40.1  34012  287.08 0867.42
2013 04 18 16 31 50 .03      56    101     99    116    152  28.9  44.8  34016  287.15 0867.42
2013 04 18 16 31 50 .28      61     96     92    115    147  32.5  43.7  34022  287.23 0867.42
2013 04 18 16 31 50 .53      71     59     90     93    129  50.5  49.4  34022  287.25 0867.41
2013 04 18 16 31 50 .78      82    100    105    130    167  39.6  43.5  34022  287.23 0867.41
2013 04 18 16 31 51 .03      83    112    117    140    182  36.5  44.1  34022  287.25 0867.41
2013 04 18 16 31 51 .28     106    127    107    166    197  39.7  35.7  34024  287.27 0867.41
2013 04 18 16 31 51 .53     128    112     95    171    195  48.9  31.4  34020  287.20 0867.41
2013 04 18 16 31 51 .78     139     48     35    148    153  70.9  13.2  34016  287.15 0867.41
2013 04 18 16 31 52 .03      60     93     43    111    119  33.0  22.0  34018  287.16 0867.41
2013 04 18 16 31 52 .28     107    100     54    147    156  46.8  20.9  34016  287.15 0867.42
2013 04 18 16 31 52 .53      71    122     93    142    169  30.3  36.3  34014  287.11 0867.42
2013 04 18 16 31 52 .78     -15    128    132    129    184 353.3  50.4  34030  287.38 0867.42
2013 04 18 16 31 53 .04     -17     97    110     99    147 349.8  53.3  34034  287.43 0867.42
2013 04 18 16 31 53 .28     -23     92    116     95    149 345.7  56.4  34048  287.67 0867.42
2013 04 18 16 31 53 .54      52    130    149    141    205  21.8  52.0  34034  287.45 0867.42
2013 04 18 16 31 53 .79      26     79    114     84    141  18.7  60.5  34044  287.60 0867.42
2013 04 18 16 31 54 .04      36    109    128    115    172  18.3  53.5  34034  287.43 0867.42
2013 04 18 16 31 54 .29      -3    102    117    103    155 358.2  54.0  34036  287.47 0867.42
2013 04 18 16 31 54 .54     -26     70    107     75    130 339.1  61.5  34064  287.94 0867.42
2013 04 18 16 31 54 .79     -37     60    138     71    155 328.4  70.8  34056  287.81 0867.42
2013 04 18 16 31 55 .04     -74    133    208    153    258 331.0  60.5  34050  287.70 0867.42
2013 04 18 16 31 55 .30     -24     73    177     78    193 341.3  75.0  34062  287.91 0867.42
2013 04 18 16 31 55 .55     -11     89    155     90    179 352.9  67.5  34052  287.76 0867.42
2013 04 18 16 31 55 .80     -38     93    177    101    203 337.7  67.7  34050  287.70 0867.42
2013 04 18 16 31 56 .05     -12    138    212    139    253 354.7  63.9  34028  287.35 0867.42
2013 04 18 16 31 56 .30     -32    160    206    164    263 348.4  57.5  34024  287.26 0867.42
2013 04 18 16 31 56 .55     -47    155    221    163    274 343.1  60.0  34022  287.24 0867.42
2013 04 18 16 31 56 .80     -32    182    181    185    258 349.8  49.4  34020  287.19 0867.42
2013 04 18 16 31 57 .05     -29    209    186    212    282 352.0  45.9  34036  287.46 0867.42
2013 04 18 16 31 57 .30       0    133    159    134    207   0.0  55.8  34022  287.23 0867.42
2013 04 18 16 31 57 .56      23    149    163    151    222   8.9  52.2  34018  287.18 0867.42
2013 04 18 16 31 57 .80      52    170    162    178    240  17.2  47.0  34020  287.20 0867.42
2013 04 18 16 31 58 .06     107    177    133    207    246  31.2  35.6  34010  287.02 0867.42
2013 04 18 16 31 58 .31       4    180    186    181    259   1.4  50.9  34036  287.46 0867.42
2013 04 18 16 31 58 .56      20    182    169    184    249   6.5  47.1  34024  287.27 0867.42
2013 04 18 16 31 58 .81      86    199    131    217    253  23.4  34.2  34018  287.16 0867.42
2013 04 18 16 31 59 .06     -10    261    118    262    287 357.8  25.9  34030  287.38 0867.42
2013 04 18 16 31 59 .31     -18    238    156    239    285 355.6  36.0  34012  287.06 0867.42
2013 04 18 16 31 59 .56      38    252    197    255    322   8.7  41.7  34008  287.01 0867.41
2013 04 18 16 31 59 .81      37    241    176    244    300   8.9  39.5  34024  287.26 0867.41
2013 04 18 16 32 00 .06      69    241    200    251    320  16.0  42.6  34014  287.09 0867.41
2013 04 18 16 32 00 .31       0    196    214    197    290   0.2  52.5  34022  287.22 0867.41
2013 04 18 16 32 00 .56     -25    236    196    238    308 353.8  43.7  34028  287.34 0867.41
2013 04 18 16 32 00 .81     -74    280    302    290    418 345.1  51.2  34036  287.49 0867.41
2013 04 18 16 32 01 .06    -110    184    202    215    295 329.2  48.0  34046  287.63 0867.41
2013 04 18 16 32 01 .31     -59    149    256    161    302 338.2  64.7  34052  287.75 0867.41
2013 04 18 16 32 01 .56      -1    112    190    113    221 359.0  66.8  34046  287.65 0867.41
2013 04 18 16 32 01 .82     -21    117    175    119    211 349.8  62.7  34060  287.89 0867.41
2013 04 18 16 32 02 .07      58     27    164     65    176  64.6  77.4  34072  288.08 0867.41
2013 04 18 16 32 02 .34     153    111    195    190    272  54.0  50.7  34036  287.46 0867.41
2013 04 18 16 32 02 .58      86    197     75    216    229  23.6  19.2  34026  287.32 0867.41
2013 04 18 16 32 02 .83     129    125    169    180    246  46.0  48.0  34030  287.38 0867.41
2013 04 18 16 32 03 .08      53    104    198    117    229  27.2  66.8  34038  287.52 0867.41
2013 04 18 16 32 03 .33      93     84    202    126    238  47.8  65.1  34042  287.57 0867.40
2013 04 18 16 32 03 .58      54     57    151     79    170  43.2  70.4  34056  287.81 0867.40
2013 04 18 16 32 03 .83     108     57    240    123    269  62.0  71.0  34050  287.70 0867.40
2013 04 18 16 32 04 .08     195    121    208    230    310  58.2  46.9  34038  287.51 0867.40
2013 04 18 16 32 04 .33     263     33      2    266    267  82.8   0.5  34028  287.34 0867.40
2013 04 18 16 32 04 .58     317     65    -41    324    327  78.3  -7.3  34040  287.53 0867.40
2013 04 18 16 32 04 .83     335     45    -44    339    342  82.3  -7.5  33994  286.78 0867.40
2013 04 18 16 32 05 .08     347    -10     68    348    355  91.8  11.1  33992  286.73 0867.41
2013 04 18 16 32 05 .33     249     38    163    252    300  81.2  35.6  34036  287.46 0867.41
2013 04 18 16 32 05 .58     240     -3    115    241    267  90.8  27.3  34034  287.43 0867.41
2013 04 18 16 32 05 .83     102   -134     96    169    194 142.8  32.1  34018  287.18 0867.41
2013 04 18 16 32 06 .08     171    130    186    216    285  52.7  45.1  34042  287.56 0867.41
2013 04 18 16 32 06 .33     162     31     63    166    177  79.0  21.7  34032  287.42 0867.41
2013 04 18 16 32 06 .59     281   -149     61    319    325 118.0  10.8  34030  287.38 0867.41
2013 04 18 16 32 06 .84     104     91     98    139    170  48.6  38.6  34036  287.47 0867.41
2013 04 18 16 32 07 .09       6    221    109    222    247   1.6  28.2  34020  287.21 0867.41
2013 04 18 16 32 07 .34       0    161    182    162    243   0.2  54.0  34020  287.21 0867.41
2013 04 18 16 32 07 .59     -17    159    177    160    238 353.8  53.3  34034  287.45 0867.41
2013 04 18 16 32 07 .84      23     26    176     36    179  41.4  89.0  34054  287.77 0867.41
2013 04 18 16 32 08 .09     -56    130     87    142    166 336.4  34.4  34016  287.13 0867.41
2013 04 18 16 32 08 .34     -74    149     78    167    184 333.5  27.0  34024  287.28 0867.41
2013 04 18 16 32 08 .59      99    246    -84    266    279  21.9 -17.5  34018  287.17 0867.41
2013 04 18 16 32 08 .84     270    225   -105    352    367  50.1 -21.6  34048  287.66 0867.41
2013 04 18 16 32 09 .10     271    178    -24    325    326  56.7  -4.2  34036  287.48 0867.41
2013 04 18 16 32 09 .35     289    121    -93    314    327  67.3 -21.4  34032  287.41 0867.41
2013 04 18 16 32 09 .60     173     98    -11    199    200  60.5  -3.3  34030  287.38 0867.40
2013 04 18 16 32 09 .85     194     81   -166    211    268  67.4 -46.8  34036  287.46 0867.40
2013 04 18 16 32 10 .11       2    126    130    127    181   1.0  50.7  34042  287.57 0867.40
2013 04 18 16 32 10 .35      -6     83    172     84    191 355.5  72.7  34068  288.03 0867.40
2013 04 18 16 32 10 .61     213    168    215    272    346  51.8  42.4  34034  287.43 0867.40
2013 04 18 16 32 10 .85     129    164    148    209    256  38.3  38.8  34034  287.43 0867.40
2013 04 18 16 32 11 .11     134    194    215    237    319  34.7  47.0  34044  287.60 0867.40
2013 04 18 16 32 11 .36     197    118    245    230    336  59.1  52.1  34044  287.61 0867.40
2013 04 18 16 32 11 .61     319    134     98    347    361  67.2  15.9  34080  288.23 0867.40
2013 04 18 16 32 11 .86     351     71     17    359    360  78.5   2.8  34078  288.20 0867.40
2013 04 18 16 32 12 .11     321    118    -48    343    347  69.8  -8.0  34074  288.10 0867.40
2013 04 18 16 32 12 .36     265     89    -86    280    292  71.4 -21.8  34072  288.09 0867.40
2013 04 18 16 32 12 .61     163    134    -91    212    230  50.5 -29.3  34070  288.04 0867.40
2013 04 18 16 32 12 .86      77     83     14    114    115  42.8   7.1  34064  287.96 0867.40
2013 04 18 16 32 13 .11     -14    -20     65     25     69 216.1  78.2  34096  288.50 0867.40
2013 04 18 16 32 13 .36      80      0     -3     81     82  90.0  -2.2  34062  287.92 0867.40
2013 04 18 16 32 13 .61       0     37    -21     38     43   0.0 -35.8  34070  288.04 0867.40
2013 04 18 16 32 13 .86     105    -60      1    121    122 119.8   0.8  34068  288.01 0867.40
2013 04 18 16 32 14 .11     168    -32    -13    172    173 101.0  -4.6  34078  288.18 0867.40
2013 04 18 16 32 14 .36     132    -14     27    133    136  96.1  11.6  34074  288.13 0867.40
2013 04 18 16 32 14 .61     125     25    -11    128    129  78.5  -5.2  34072  288.09 0867.40
2013 04 18 16 32 14 .86     119     79    -44    144    151  56.3 -17.0  34082  288.26 0867.40
2013 04 18 16 32 15 .12     136     96     26    167    170  54.9   9.0  34082  288.25 0867.40
2013 04 18 16 32 15 .36      49   -100    106    112    154 153.7  48.5  34086  288.33 0867.40
2013 04 18 16 32 15 .62      26    -99    164    103    193 165.3  64.7  34102  288.60 0867.40
2013 04 18 16 32 15 .87      35   -135    155    140    208 165.3  53.3  34100  288.55 0867.39
2013 04 18 16 32 16 .13      47      3    134     48    142  85.6  79.7  34102  288.60 0867.39
2013 04 18 16 32 16 .38     279     58    125    286    312  78.1  25.0  34080  288.22 0867.39
2013 04 18 16 32 16 .63     305     82     51    317    322  74.9   9.2  34060  287.88 0867.39
2013 04 18 16 32 16 .88     312     25     25    314    316  85.4   4.7  34046  287.65 0867.39
2013 04 18 16 32 17 .13     153    116    193    193    272  52.9  50.1  34084  288.29 0867.39
2013 04 18 16 32 17 .38     174     48     52    181    189  74.5  16.0  34062  287.92 0867.39
2013 04 18 16 32 17 .63     259    219    -47    340    344  49.7  -8.0  34068  288.01 0867.39
2013 04 18 16 32 17 .88     330    186     20    380    381  60.6   3.0  34064  287.93 0867.39
2013 04 18 16 32 18 .13     278    233    -14    363    364  50.0  -2.3  34062  287.91 0867.39
2013 04 18 16 32 18 .38     358    260    -37    443    445  54.0  -4.9  34068  288.02 0867.39
2013 04 18 16 32 18 .63     357    212    -52    416    420  59.3  -7.2  34040  287.53 0867.39
2013 04 18 16 32 18 .88     334    176     12    378    379  62.1   1.9  34050  287.71 0867.39
2013 04 18 16 32 19 .13     333    169      3    374    375  63.0   0.5  34036  287.47 0867.39
2013 04 18 16 32 19 .38     426    115    -45    442    445  74.9  -5.9  34026  287.30 0867.39
2013 04 18 16 32 19 .64     318    190    -77    371    380  59.1 -11.8  34050  287.71 0867.39
2013 04 18 16 32 19 .89     375     18    -81    376    385  87.2 -12.2  34038  287.52 0867.39
2013 04 18 16 32 20 .16     387     67    -34    393    395  80.1  -5.1  34038  287.52 0867.39
2013 04 18 16 32 20 .39     283    124    -49    310    314  66.4  -9.0  34062  287.90 0867.40
2013 04 18 16 32 20 .64     280     56    -90    286    300  78.5 -17.5  34054  287.78 0867.40
2013 04 18 16 32 20 .89     261     74    -93    272    287  74.1 -23.6  34050  287.70 0867.40
2013 04 18 16 32 21 .14     133    225      7    262    263  30.7   1.7  34054  287.78 0867.40
2013 04 18 16 32 21 .39     164    143    141    218    259  48.9  35.7  34058  287.83 0867.40
2013 04 18 16 32 21 .64     279    154     36    319    322  61.1   6.6  34070  288.05 0867.40
2013 04 18 16 32 21 .89     309    173    -33    355    357  60.7  -5.5  34074  288.13 0867.40
2013 04 18 16 32 22 .14     297    197    -59    357    362  56.4  -9.4  34068  288.00 0867.40
2013 04 18 16 32 22 .40      74    164    -36    180    184  24.3 -11.5  34038  287.50 0867.40
2013 04 18 16 32 22 .64      79    -16     97     81    126 101.5  55.8  34072  288.08 0867.40
2013 04 18 16 32 22 .90      98    -17    108    100    147 100.1  52.2  34070  288.04 0867.40
2013 04 18 16 32 23 .15     -10     32     57     34     66 341.5  65.7  34090  288.38 0867.40
2013 04 18 16 32 23 .40      63     25     54     68     86  68.2  42.7  34074  288.11 0867.40
2013 04 18 16 32 23 .65     135    -14    103    136    170  96.1  41.2  34064  287.94 0867.40
2013 04 18 16 32 23 .91     123    -12    131    124    180  95.7  52.0  34068  288.03 0867.40
2013 04 18 16 32 24 .16     123    -20    119    125    172  99.6  49.0  34072  288.08 0867.39
2013 04 18 16 32 24 .40     114      1    130    115    173  89.1  54.0  34074  288.11 0867.39
2013 04 18 16 32 24 .66      99     87     10    133    134  48.7   4.4  34070  288.04 0867.39
2013 04 18 16 32 24 .91      94     48     -5    106    107  62.5  -3.1  34072  288.08 0867.39
2013 04 18 16 32 25 .16      83     31     23     89     92  69.2  14.7  34080  288.21 0867.39
2013 04 18 16 32 25 .41      48     15    -16     51     54  71.8 -17.6  34070  288.06 0867.39
2013 04 18 16 32 25 .66      -7     90    -20     91     94 355.1 -12.4  34076  288.14 0867.39
2013 04 18 16 32 25 .91      33    110     -4    116    117  16.9  -2.2  34066  287.98 0867.39
2013 04 18 16 32 26 .16      67    128    -57    145    155  27.6 -26.9  34068  288.01 0867.39
2013 04 18 16 32 26 .41     109    116    -65    160    172  43.2 -27.4  34074  288.11 0867.39
2013 04 18 16 32 26 .66      28     87    -39     92     99  18.3 -28.5  34070  288.04 0867.39
2013 04 18 16 32 26 .91      29     63    -39     70     80  25.3 -35.8  34070  288.06 0867.39
2013 04 18 16 32 27 .16      -2     56      1     57     58 357.3   1.8  34072  288.08 0867.39
2013 04 18 16 32 27 .41     -25     70     54     75     92 340.0  39.7  34072  288.09 0867.39
2013 04 18 16 32 27 .67      95    130     83    162    182  36.1  29.1  34068  288.03 0867.39
2013 04 18 16 32 27 .92     116    189     94    222    241  31.6  24.2  34064  287.95 0867.40
2013 04 18 16 32 28 .17     160    181     37    242    245  41.4   8.9  34068  288.00 0867.40
2013 04 18 16 32 28 .42     182    181     32    257    259  45.1   7.1  34068  288.00 0867.40
2013 04 18 16 32 28 .67     348    207    -54    406    410  59.3  -7.6  34070  288.06 0867.40
2013 04 18 16 32 28 .92     297    223   -134    372    396  53.0 -19.8  34068  288.03 0867.40
2013 04 18 16 32 29 .17     419     95    -96    430    441  77.1 -12.7  34074  288.11 0867.40
2013 04 18 16 32 29 .42     239   -138   -148    277    314 120.0 -34.7  34070  288.04 0867.40
2013 04 18 16 32 29 .67     289   -115    -37    312    315 111.8  -6.8  34064  287.93 0867.40
2013 04 18 16 32 29 .93     198    125    -47    235    240  57.6 -11.5  34064  287.95 0867.40
2013 04 18 16 32 30 .18     180    211     39    278    281  40.5   8.0  34068  288.00 0867.40
2013 04 18 16 32 30 .43      24    -36    153     44    159 145.7  83.9  34098  288.53 0867.40
2013 04 18 16 32 30 .68     203    148    214    252    330  53.8  44.7  34082  288.26 0867.40
2013 04 18 16 32 30 .93     326    258    107    417    431  51.6  14.5  34062  287.90 0867.40
2013 04 18 16 32 31 .18     313    358    136    476    496  41.2  16.0  34068  288.02 0867.40
2013 04 18 16 32 31 .43     258    340     50    428    431  37.2   6.7  34066  287.97 0867.40
2013 04 18 16 32 31 .68     422    241     92    487    496  60.2  10.7  34062  287.90 0867.40
2013 04 18 16 32 31 .93     429    250     96    497    507  59.7  11.0  34078  288.17 0867.40
2013 04 18 16 32 32 .18     431    287     61    519    523  56.3   6.8  34060  287.87 0867.40
2013 04 18 16 32 32 .44     459    288     40    543    545  57.9   4.2  34030  287.38 0867.40
2013 04 18 16 32 32 .69     434    248     70    500    506  60.2   8.0  34036  287.46 0867.40
2013 04 18 16 32 32 .94     432    251     77    500    506  59.8   8.8  34040  287.54 0867.40
2013 04 18 16 32 33 .19     413    225    104    471    483  61.4  12.5  34046  287.64 0867.40
2013 04 18 16 32 33 .44     366    211     67    423    429  60.0   9.0  34040  287.53 0867.40
2013 04 18 16 32 33 .69     373    185     20    417    418  63.6   2.8  34042  287.57 0867.40
2013 04 18 16 32 33 .94     390    247    -18    462    463  57.6  -2.2  34066  287.99 0867.40
2013 04 18 16 32 34 .19     382    243    -63    454    459  57.5  -8.0  34038  287.52 0867.40
2013 04 18 16 32 34 .44     405    237    -45    470    473  59.6  -5.6  34056  287.81 0867.40
2013 04 18 16 32 34 .69     422    185    -91    462    471  66.3 -11.2  34064  287.93 0867.40
2013 04 18 16 32 34 .94     348    200    -33    402    404  60.1  -4.8  34074  288.11 0867.40
2013 04 18 16 32 35 .19     281    203    -30    347    349  54.1  -5.1  34080  288.23 0867.40
2013 04 18 16 32 35 .44     314    149    -32    348    350  64.6  -5.3  34090  288.40 0867.40
2013 04 18 16 32 35 .69     329    162    -28    367    368  63.8  -4.4  34086  288.32 0867.40
2013 04 18 16 32 35 .94     359    145      0    388    389  67.9   0.0  34086  288.32 0867.40
2013 04 18 16 32 36 .19     329    141      5    359    360  66.8   0.8  34084  288.27 0867.41
2013 04 18 16 32 36 .44     260    218     -6    340    341  50.1  -1.2  34078  288.18 0867.41
2013 04 18 16 32 36 .70     300    291    -38    419    421  45.9  -5.2  34074  288.11 0867.41
2013 04 18 16 32 36 .96     372    244    -56    446    450  56.7  -7.2  34070  288.06 0867.41
2013 04 18 16 32 37 .21     313    220    -84    383    393  54.9 -12.4  34074  288.10 0867.41
2013 04 18 16 32 37 .46     281    181    -66    335    342  57.1 -11.2  34068  288.01 0867.41
2013 04 18 16 32 37 .71     198    308    -73    367    375  32.8 -11.3  34070  288.05 0867.41
2013 04 18 16 32 37 .96     142    302    -94    334    348  25.2 -15.8  34068  288.03 0867.41
2013 04 18 16 32 38 .21     168    262     -6    312    313  32.6  -1.3  34074  288.12 0867.41
2013 04 18 16 32 38 .46     325    240      0    405    406  53.5   0.1  34064  287.94 0867.41
2013 04 18 16 32 38 .71     296    325     14    440    441  42.3   1.9  34064  287.94 0867.41
2013 04 18 16 32 38 .96     349    142     68    377    384  67.8  10.2  34066  287.98 0867.42
2013 04 18 16 32 39 .21     279    249     24    375    376  48.2   3.7  34068  288.01 0867.42
2013 04 18 16 32 39 .46     360    186     73    406    413  62.6  10.2  34056  287.82 0867.42
2013 04 18 16 32 39 .71     343    178     29    387    389  62.6   4.3  34052  287.74 0867.42
2013 04 18 16 32 39 .96     319    213     45    384    387  56.3   6.8  34058  287.84 0867.42
2013 04 18 16 32 40 .21     278    193     66    339    346  55.1  11.1  34060  287.89 0867.42
2013 04 18 16 32 40 .46     272    206     43    342    345  52.9   7.2  34064  287.93 0867.42
2013 04 18 16 32 40 .71     260    195     32    326    328  53.1   5.7  34066  287.99 0867.42
2013 04 18 16 32 40 .96     224    183     16    290    291  50.7   3.3  34066  287.99 0867.42
2013 04 18 16 32 41 .21     243    171     42    298    302  54.9   8.0  34064  287.93 0867.42
2013 04 18 16 32 41 .47     221    207      3    304    305  46.9   0.7  34070  288.04 0867.42
2013 04 18 16 32 41 .72     128    147    -46    196    202  41.0 -13.2  34064  287.94 0867.42
2013 04 18 16 32 41 .97     125    236    -82    268    280  27.9 -21.8  34074  288.12 0867.42
2013 04 18 16 32 42 .22     125    103    -19    163    165  50.5  -6.9  34076  288.16 0867.42
2013 04 18 16 32 42 .47      99    151    -19    181    183  33.2  -6.2  34070  288.06 0867.42
2013 04 18 16 32 42 .72     118    223    -38    253    256  28.0  -8.6  34070  288.04 0867.42
2013 04 18 16 32 42 .97      87    169     55    191    199  27.2  16.3  34068  288.01 0867.42
2013 04 18 16 32 43 .22     170    221     61    279    286  37.6  12.4  34066  287.99 0867.42
2013 04 18 16 32 43 .47     289    276     -8    400    401  46.3  -1.3  34052  287.76 0867.42
2013 04 18 16 32 43 .72     304    311    -19    436    437  44.3  -2.5  34060  287.87 0867.42
2013 04 18 16 32 43 .98     272    327    -39    426    429  39.8  -5.3  34066  287.97 0867.42
2013 04 18 16 32 44 .23     253    290    -21    386    387  41.1  -3.1  34070  288.06 0867.42
2013 04 18 16 32 44 .48     227    241    166    332    371  43.3  28.6  34072  288.08 0867.42
2013 04 18 16 32 44 .73     289    104    176    308    354  70.1  32.4  34076  288.16 0867.42
2013 04 18 16 32 44 .98     246    167    159    298    337  55.9  30.5  34074  288.10 0867.42
2013 04 18 16 32 45 .23     273    173    168    324    364  57.6  29.5  34074  288.11 0867.41
2013 04 18 16 32 45 .48     278    178    167    331    370  57.4  28.9  34068  288.03 0867.41
2013 04 18 16 32 45 .74     327    222     49    396    400  55.8   7.1  34048  287.69 0867.41
2013 04 18 16 32 45 .98     313    238     19    394    395  52.7   2.8  34036  287.47 0867.41
2013 04 18 16 32 46 .24     349    271     -9    443    444  52.2  -1.3  34052  287.73 0867.41
2013 04 18 16 32 46 .49     380    346    -27    515    516  47.7  -3.0  34056  287.80 0867.41
2013 04 18 16 32 46 .74     326    487    -22    587    588  33.8  -2.2  34062  287.90 0867.41
2013 04 18 16 32 46 .99      68    402     87    408    418   9.7  12.1  34052  287.75 0867.41
2013 04 18 16 32 47 .24     103    446      0    458    459  13.1   0.0  34070  288.04 0867.41
2013 04 18 16 32 47 .49     345    116     38    365    368  71.3   6.1  34034  287.45 0867.41
2013 04 18 16 32 47 .74      94     94    148    133    198  45.0  53.5  34070  288.06 0867.41
2013 04 18 16 32 47 .99      81     97    137    127    186  39.6  52.2  34068  288.03 0867.41
2013 04 18 16 32 48 .24     148    288    154    324    358  27.2  27.3  34066  287.98 0867.41
2013 04 18 16 32 48 .49     308    289    -23    423    424  46.8  -3.2  34036  287.46 0867.41
2013 04 18 16 32 48 .74     323    264     -2    418    419  50.7  -0.4  34060  287.87 0867.41
2013 04 18 16 32 49 .00     350    280      3    449    450  51.4   0.5  34064  287.94 0867.41
2013 04 18 16 32 49 .24     329    221     46    397    400  56.0   6.7  34060  287.88 0867.41
2013 04 18 16 32 49 .49     229    161    112    281    302  54.9  23.0  34062  287.92 0867.41
2013 04 18 16 32 49 .75     287    182      5    341    342  57.6   0.9  34060  287.89 0867.41
2013 04 18 16 32 50 .01     300    192     18    357    358  57.4   2.9  34052  287.76 0867.41
2013 04 18 16 32 50 .25     336    241    -15    414    415  54.3  -2.1  34060  287.87 0867.41
2013 04 18 16 32 50 .51     376    263    -35    459    461  55.0  -4.5  34034  287.43 0867.41
2013 04 18 16 32 50 .76     386    245    -25    458    459  57.5  -3.2  34034  287.43 0867.41
2013 04 18 16 32 51 .01     475    230     15    528    529  64.1   1.7  34030  287.38 0867.41
2013 04 18 16 32 51 .26     437    127     77    456    463  73.8   9.6  34036  287.48 0867.41
2013 04 18 16 32 51 .51     348    252    -67    430    436  54.0  -8.9  34050  287.70 0867.40
2013 04 18 16 32 51 .76     263    193    -42    327    330  53.7  -7.3  34048  287.67 0867.40
2013 04 18 16 32 52 .01     131    210     83    248    262  32.1  18.6  34046  287.63 0867.40
2013 04 18 16 32 52 .26     252    285    -35    381    383  41.5  -5.3  34052  287.74 0867.40
2013 04 18 16 32 52 .51     289    309    -77    424    431  43.1 -10.4  34050  287.72 0867.40
2013 04 18 16 32 52 .76     268    168     24    317    318  58.0   4.3  34052  287.75 0867.40
2013 04 18 16 32 53 .01     327    176    -50    372    376  61.6  -7.7  34044  287.61 0867.40
2013 04 18 16 32 53 .26     253    240    -57    349    354  46.5  -9.3  34048  287.66 0867.40
2013 04 18 16 32 53 .52     255    106     56    277    283  67.4  11.6  34048  287.66 0867.41
2013 04 18 16 32 53 .76     175    101     49    203    209  60.0  13.7  34052  287.74 0867.41
2013 04 18 16 32 54 .01      82    202    -10    219    220  22.1  -2.8  34048  287.67 0867.41
2013 04 18 16 32 54 .27     145    103    -35    179    183  54.5 -11.1  34060  287.89 0867.41
2013 04 18 16 32 54 .52     168    165     66    236    246  45.6  15.6  34066  287.97 0867.41
2013 04 18 16 32 54 .77     202    128    153    240    284  57.5  35.5  34056  287.80 0867.41
2013 04 18 16 32 55 .02      66    105    145    125    191  32.1  55.0  34072  288.09 0867.41
2013 04 18 16 32 55 .26      55    138    149    149    210  21.9  50.1  34064  287.94 0867.41
2013 04 18 16 32 55 .52     152    110     30    188    191  54.1   9.3  34050  287.72 0867.41
2013 04 18 16 32 55 .77     186    180     75    259    270  46.0  16.3  34046  287.65 0867.41
2013 04 18 16 32 56 .02     157    147     47    216    222  46.9  12.4  34056  287.81 0867.41
2013 04 18 16 32 56 .27     192    158    -28    249    251  50.5  -6.5  34056  287.80 0867.41
2013 04 18 16 32 56 .53     192    136     64    236    245  54.5  15.3  34052  287.75 0867.41
2013 04 18 16 32 56 .78     210    168     58    270    277  51.4  12.1  34052  287.75 0867.41
2013 04 18 16 32 57 .03     148    117     88    189    208  51.6  27.1  34056  287.81 0867.41
2013 04 18 16 32 57 .28     301    119     -4    324    325  68.3  -0.7  34028  287.34 0867.41
2013 04 18 16 32 57 .53     294    178    -22    344    345  58.8  -3.8  34044  287.62 0867.41
2013 04 18 16 32 57 .78     299    174    -31    346    348  59.8  -5.2  34044  287.61 0867.41
2013 04 18 16 32 58 .03     294    152    -56    332    337  62.6  -9.6  34052  287.76 0867.41
2013 04 18 16 32 58 .28     250    127    -77    281    292  63.0 -15.4  34036  287.46 0867.41
2013 04 18 16 32 58 .54     275     56    -96    281    298  78.3 -18.9  34036  287.46 0867.41
2013 04 18 16 32 58 .79     229     94     -1    248    249  67.6  -0.3  34050  287.71 0867.41
2013 04 18 16 32 59 .04     213    123     50    246    252  60.0  11.6  34052  287.75 0867.42
2013 04 18 16 32 59 .29     151     35     58    156    166  76.8  21.5  34052  287.74 0867.42
2013 04 18 16 32 59 .54     245    103     24    266    268  67.2   5.2  34044  287.60 0867.42
2013 04 18 16 32 59 .79     275     56     59    281    288  78.3  12.0  34052  287.75 0867.42
2013 04 18 16 33 00 .04     265    115    130    290    317  66.5  25.8  34056  287.82 0867.41
2013 04 18 16 33 00 .29     183    315     66    365    372  30.1  10.3  34052  287.76 0867.41
2013 04 18 16 33 00 .54     206    317     74    379    387  33.0  11.1  34058  287.83 0867.41
2013 04 18 16 33 00 .79     233    262     78    351    360  41.7  12.6  34058  287.84 0867.41
2013 04 18 16 33 01 .04     269    257     84    373    383  46.3  12.8  34058  287.83 0867.41
2013 04 18 16 33 01 .29     305    262     42    403    406  49.4   6.0  34058  287.85 0867.41
2013 04 18 16 33 01 .54     323    256     36    413    415  51.6   5.1  34064  287.94 0867.41
2013 04 18 16 33 01 .79     337    306    -38    456    458  47.8  -4.8  34048  287.67 0867.41
2013 04 18 16 33 02 .05     370    268    -25    458    459  54.1  -3.2  34050  287.72 0867.41
2013 04 18 16 33 02 .30     330    271    -85    427    436  50.6 -11.3  34068  288.01 0867.41
2013 04 18 16 33 02 .54     328    366   -123    492    508  41.9 -14.1  34060  287.88 0867.41
2013 04 18 16 33 02 .79     340    437    -57    554    557  37.9  -5.9  34054  287.77 0867.41
2013 04 18 16 33 03 .05     327    408    -36    524    526  38.7  -4.0  34060  287.87 0867.41
2013 04 18 16 33 03 .30     261    360    -79    445    453  36.0 -10.1  34070  288.06 0867.41
2013 04 18 16 33 03 .56     226    357      6    423    424  32.3   0.8  34056  287.82 0867.41
2013 04 18 16 33 03 .81     177    278     81    330    340  32.5  13.9  34060  287.89 0867.41
2013 04 18 16 33 04 .06     256     90     90    272    287  70.5  18.5  34070  288.05 0867.41
2013 04 18 16 33 04 .31     244     86    146    259    297  70.5  31.6  34082  288.26 0867.41
2013 04 18 16 33 04 .56     202     78    113    217    244  68.7  29.5  34080  288.22 0867.41
2013 04 18 16 33 04 .81     102     92    104    138    172  47.8  40.9  34074  288.11 0867.41
2013 04 18 16 33 05 .06     200    166    104    261    280  50.4  23.0  34062  287.90 0867.41
2013 04 18 16 33 05 .31     281    154     53    321    326  61.2   9.4  34064  287.93 0867.41
2013 04 18 16 33 05 .56     301    169     16    346    347  60.7   2.8  34058  287.84 0867.41
2013 04 18 16 33 05 .81     335    219     20    401    402  56.8   2.9  34034  287.44 0867.41
2013 04 18 16 33 06 .06     313    208     14    376    377  56.4   2.2  34022  287.25 0867.41
2013 04 18 16 33 06 .31     301    209    -25    367    368  55.2  -3.9  34024  287.27 0867.41
2013 04 18 16 33 06 .56     308    208    -71    372    379  55.9 -10.8  34020  287.20 0867.41
2013 04 18 16 33 06 .81     285    179    -98    337    350  57.8 -21.1  34026  287.32 0867.41
2013 04 18 16 33 07 .07     248    103    -63    269    277  67.4 -13.3  34052  287.75 0867.41
2013 04 18 16 33 07 .32     204    185     13    276    277  47.8   2.8  34058  287.85 0867.41
2013 04 18 16 33 07 .57     281    224    -26    360    361  51.4  -4.2  34064  287.93 0867.41
2013 04 18 16 33 07 .82     363    249     -9    441    442  55.5  -1.3  34060  287.89 0867.41
2013 04 18 16 33 08 .06     282    245    -39    374    377  49.0  -6.0  34030  287.37 0867.41
2013 04 18 16 33 08 .32     213    169    -78    273    285  51.6 -16.0  34044  287.61 0867.41
2013 04 18 16 33 08 .57     314    287    -10    426    427  47.6  -1.4  34032  287.41 0867.41
2013 04 18 16 33 08 .82     300    374    -29    480    481  38.7  -3.5  34052  287.73 0867.41
2013 04 18 16 33 09 .07     354    125     19    376    377  70.4   3.0  34042  287.56 0867.41
2013 04 18 16 33 09 .32     339    163     37    377    379  64.2   5.7  34052  287.76 0867.41
2013 04 18 16 33 09 .57     355    338    -48    491    494  46.4  -5.6  34044  287.61 0867.41
2013 04 18 16 33 09 .82     499    328   -212    598    635  56.7 -19.6  34054  287.79 0867.41
2013 04 18 16 33 10 .08     487    111    203    500    539  77.1  23.4  34046  287.64 0867.40
2013 04 18 16 33 10 .32     245    215     21    327    328  48.7   3.7  34050  287.71 0867.40
2013 04 18 16 33 10 .58     208    262    126    335    357  38.4  21.5  34060  287.88 0867.40
2013 04 18 16 33 10 .83     247    387     40    460    462  32.6   5.1  34056  287.82 0867.40
2013 04 18 16 33 11 .08     150    214    186    262    321  35.1  38.8  34060  287.88 0867.40
2013 04 18 16 33 11 .33     215    123    155    248    292  60.2  35.5  34070  288.05 0867.40
2013 04 18 16 33 11 .58     296    201     96    358    371  55.8  15.0  34058  287.83 0867.40
2013 04 18 16 33 11 .83     265    236     13    355    356  48.3   2.2  34080  288.23 0867.40
2013 04 18 16 33 12 .08     339    136    206    366    419  68.1  31.9  34054  287.79 0867.40
2013 04 18 16 33 12 .34     396    244     22    466    467  58.4   2.8  34058  287.86 0867.40
2013 04 18 16 33 12 .59     367    302    -44    476    479  50.5  -5.3  34058  287.86 0867.40
2013 04 18 16 33 12 .84     470    330    -83    575    582  54.9  -8.2  34030  287.36 0867.40
2013 04 18 16 33 13 .09     478    341   -107    588    598  54.5 -10.4  34032  287.41 0867.40
2013 04 18 16 33 13 .34     421    363   -172    557    584  49.2 -17.2  34066  287.97 0867.40
2013 04 18 16 33 13 .59     302    337   -137    453    474  41.9 -16.9  34042  287.58 0867.40
2013 04 18 16 33 13 .84     281    298    -83    410    419  43.3 -11.5  34058  287.84 0867.40
2013 04 18 16 33 14 .09     273    306    -46    411    414  41.7  -6.5  34068  288.02 0867.40
2013 04 18 16 33 14 .34     231    320     16    395    396  35.8   2.3  34064  287.93 0867.40
2013 04 18 16 33 14 .59     227    339     -9    409    410  33.9  -1.3  34064  287.94 0867.40
2013 04 18 16 33 14 .84     226    347    -43    415    418  33.1  -6.0  34054  287.79 0867.40
2013 04 18 16 33 15 .09     281    312     59    421    426  42.0   8.0  34062  287.92 0867.40
2013 04 18 16 33 15 .34     243    314     81    398    407  37.7  11.5  34064  287.94 0867.40
2013 04 18 16 33 15 .59     263    316     57    412    416  39.8   7.9  34062  287.92 0867.40
2013 04 18 16 33 15 .84     228    313    -20    388    389  36.1  -3.0  34044  287.62 0867.40
2013 04 18 16 33 16 .10     239    335    -11    412    413  35.5  -1.6  34050  287.70 0867.40
2013 04 18 16 33 16 .34     276    334    -41    434    437  39.6  -5.5  34034  287.45 0867.40
2013 04 18 16 33 16 .60     251    300    -50    392    396  39.9  -7.4  34026  287.29 0867.41
2013 04 18 16 33 16 .84     214    247    -69    328    336  40.9 -11.9  34022  287.23 0867.41
2013 04 18 16 33 17 .10     178    229    -87    291    304  37.9 -16.6  34024  287.26 0867.41
2013 04 18 16 33 17 .35     152    208    -74    258    269  36.1 -16.0  34032  287.39 0867.41
2013 04 18 16 33 17 .61     148    165    -84    223    238  41.9 -25.9  34046  287.65 0867.41
2013 04 18 16 33 17 .86      71    247    -94    258    274  16.0 -25.4  34066  287.99 0867.41
2013 04 18 16 33 18 .11      26    154    -52    157    166   9.8 -18.3  34066  287.98 0867.41
2013 04 18 16 33 18 .36       7    156    -42    157    163   2.7 -15.2  34058  287.86 0867.41
2013 04 18 16 33 18 .61      27    169    -54    172    180   9.3 -22.8  34060  287.87 0867.41
2013 04 18 16 33 18 .86      38    189    -56    193    200  11.6 -21.0  34066  287.99 0867.41
2013 04 18 16 33 19 .11      80    144     17    165    166  29.0   5.9  34056  287.81 0867.41
2013 04 18 16 33 19 .36      87     86     32    123    128  45.6  14.7  34054  287.79 0867.41
2013 04 18 16 33 19 .61      52     63     77     83    113  39.6  48.0  34064  287.94 0867.41
2013 04 18 16 33 19 .86     117    124      5    171    172  43.2   1.8  34066  287.99 0867.41
2013 04 18 16 33 20 .11     114    113     75    161    177  45.1  27.0  34062  287.91 0867.41
2013 04 18 16 33 20 .37     158    116     51    197    204  53.6  14.5  34064  287.94 0867.41
2013 04 18 16 33 20 .61     169    163     48    235    240  46.0  11.6  34066  287.97 0867.41
2013 04 18 16 33 20 .86     128    191     93    231    249  33.8  23.0  34070  288.04 0867.41
2013 04 18 16 33 21 .12     188    188     96    266    282  45.0  20.9  34064  287.93 0867.42
2013 04 18 16 33 21 .37     204    100    211    228    310  63.8  47.9  34072  288.07 0867.42
2013 04 18 16 33 21 .62     267    158     63    311    318  59.4  11.6  34066  287.99 0867.42
2013 04 18 16 33 21 .87     332    144     75    363    371  66.5  11.8  34056  287.81 0867.42
2013 04 18 16 33 22 .12     191    107    173    219    279  60.7  42.4  34070  288.05 0867.42
2013 04 18 16 33 22 .37     294    125     99    320    336  67.0  17.3  34064  287.94 0867.42
2013 04 18 16 33 22 .62     279    182    227    334    403  56.9  37.4  34094  288.44 0867.42
2013 04 18 16 33 22 .87     184    252    207    313    375  36.1  36.6  34084  288.30 0867.41
2013 04 18 16 33 23 .12      48    105    192    116    224  24.5  66.0  34106  288.65 0867.41
2013 04 18 16 33 23 .37    -130    285      5    314    315 335.5   1.0  34086  288.32 0867.41
2013 04 18 16 33 23 .62     211    352   -115    411    426  31.0 -20.3  34024  287.28 0867.41
2013 04 18 16 33 23 .87     242    376   -115    448    463  32.8 -14.5  34022  287.23 0867.41
2013 04 18 16 33 24 .12     284    403   -136    494    512  35.2 -20.1  34030  287.37 0867.41
2013 04 18 16 33 24 .38     303    397   -171    500    529  37.3 -18.9  34028  287.35 0867.41
2013 04 18 16 33 24 .63     279    480   -141    556    574  30.2 -14.3  34034  287.43 0867.41
2013 04 18 16 33 24 .88     294    483   -160    566    589  31.3 -15.8  34022  287.24 0867.41
2013 04 18 16 33 25 .14     255    474   -175    539    567  28.3 -18.1  34018  287.18 0867.41
2013 04 18 16 33 25 .39     252    408   -167    480    508  31.7 -24.4  34032  287.42 0867.41
2013 04 18 16 33 25 .64     188    291    -95    347    359  33.0 -20.1  34042  287.59 0867.41
2013 04 18 16 33 25 .89     112    371   -143    388    413  16.8 -25.5  34052  287.75 0867.41
2013 04 18 16 33 26 .14     108    398   -135    413    434  15.2 -23.2  34044  287.62 0867.41
2013 04 18 16 33 26 .39     -32    255     40    258    262 352.7   9.0  34064  287.93 0867.41
2013 04 18 16 33 26 .64     -24    165     69    167    180 351.5  23.6  34066  287.99 0867.41
2013 04 18 16 33 26 .89     117     98    145    153    210  50.0  48.5  34066  287.99 0867.41
2013 04 18 16 33 27 .14     205     73    231    218    317  70.3  51.9  34060  287.88 0867.41
2013 04 18 16 33 27 .39     259    135    237    293    376  62.5  43.3  34058  287.83 0867.43
2013 04 18 16 33 27 .64     235     26     60    237    245  83.6  14.3  34050  287.70 0867.43
2013 04 18 16 33 27 .89     156    259     11    303    304  31.2   2.1  34056  287.82 0867.43
2013 04 18 16 33 28 .14     148    371    -71    400    407  21.8 -10.1  34062  287.90 0867.43
2013 04 18 16 33 28 .39     244    438   -104    502    513  29.1 -11.8  34020  287.20 0867.43
2013 04 18 16 33 28 .64     228    380    -61    444    449  30.9  -7.9  34026  287.30 0867.43
2013 04 18 16 33 28 .89     245    333    -98    414    426  36.4 -13.4  34022  287.24 0867.43
2013 04 18 16 33 29 .14     234    304   -100    384    397  37.6 -14.7  34018  287.18 0867.43
2013 04 18 16 33 29 .39     245    308   -104    394    408  38.5 -14.8  34020  287.21 0867.43
2013 04 18 16 33 29 .64     265    311   -112    409    425  40.4 -15.4  34020  287.19 0867.43
2013 04 18 16 33 29 .90     302    331   -130    449    468  42.4 -16.2  34018  287.18 0867.43
2013 04 18 16 33 30 .15     347    310    -89    466    475  48.2 -10.9  34020  287.20 0867.43
2013 04 18 16 33 30 .40     318    259   -106    411    425  50.8 -14.5  34030  287.36 0867.43
2013 04 18 16 33 30 .65     262    246   -106    360    376  46.8 -16.4  34024  287.27 0867.43
2013 04 18 16 33 30 .90     218    181    -96    284    300  50.4 -18.7  34032  287.41 0867.44
2013 04 18 16 33 31 .15     123     89    -29    152    155  54.0 -10.9  34036  287.47 0867.44
2013 04 18 16 33 31 .41     124     26    -30    127    131  78.1 -13.3  34038  287.52 0867.44
2013 04 18 16 33 31 .66      72    -24      9     76     77 108.4   7.1  34042  287.59 0867.44
2013 04 18 16 33 31 .91     170    -35    -34    174    178 101.7 -11.3  34044  287.60 0867.44
2013 04 18 16 33 32 .16     104      9     87    105    136  84.8  43.8  34040  287.55 0867.44
2013 04 18 16 33 32 .41      70     66     73     97    121  46.9  41.2  34044  287.60 0867.44
2013 04 18 16 33 32 .66      54    166     99    175    201  18.3  31.9  34044  287.62 0867.44
2013 04 18 16 33 32 .91     -54    282    -62    288    295 349.1 -12.2  34032  287.39 0867.44
2013 04 18 16 33 33 .17     106    326     -7    343    344  18.1  -1.3  34042  287.56 0867.44
2013 04 18 16 33 33 .42     167    145    128    222    256  49.1  32.4  34048  287.66 0867.44
2013 04 18 16 33 33 .67     238     97     65    258    267  67.8  14.3  34042  287.58 0867.44
2013 04 18 16 33 33 .92     122    192    -72    228    239  32.5 -22.8  34044  287.61 0867.44
2013 04 18 16 33 34 .17      52    220    -41    227    231  13.3 -10.4  34046  287.64 0867.44
2013 04 18 16 33 34 .42      87    319     18    331    332  15.4   3.1  34050  287.71 0867.44
2013 04 18 16 33 34 .67     153    452     31    478    480  18.7   3.8  34048  287.69 0867.44
2013 04 18 16 33 34 .92     151    447    -31    472    474  18.7  -3.8  34024  287.27 0867.44
2013 04 18 16 33 35 .17      67    442     29    448    449   8.7   3.7  34048  287.67 0867.44
2013 04 18 16 33 35 .42     131    361    -44    385    388  20.0  -6.6  34020  287.20 0867.44
2013 04 18 16 33 35 .67     132    329    -61    355    361  21.9  -9.8  34016  287.15 0867.44
2013 04 18 16 33 35 .92     140    314    -70    345    352  24.1 -11.5  34018  287.18 0867.44
2013 04 18 16 33 36 .17     163    325   -100    364    378  26.8 -15.4  34018  287.18 0867.44
2013 04 18 16 33 36 .42     190    337   -122    388    407  29.4 -17.5  34024  287.27 0867.44
2013 04 18 16 33 36 .67     231    363   -121    431    448  32.5 -15.8  34024  287.26 0867.44
2013 04 18 16 33 36 .93     384    256    -93    462    472  56.3 -11.5  34038  287.51 0867.44
2013 04 18 16 33 37 .17     269    236     33    359    361  48.7   5.3  34040  287.54 0867.44
2013 04 18 16 33 37 .42     235    266    -72    356    364  41.5 -11.5  34026  287.30 0867.45
2013 04 18 16 33 37 .67     190    277   -109    337    355  34.5 -18.0  34026  287.29 0867.45
2013 04 18 16 33 37 .92     205    332   -108    391    405  31.7 -20.1  34024  287.27 0867.45
2013 04 18 16 33 38 .17     198    266   -106    332    348  36.7 -22.9  34026  287.30 0867.45
2013 04 18 16 33 38 .44     128    297   -100    324    339  23.4 -22.3  34026  287.29 0867.45
2013 04 18 16 33 38 .69      91    308    -85    322    333  16.5 -14.8  34024  287.27 0867.45
2013 04 18 16 33 38 .94      -5    332    -23    333    334 359.0  -4.0  34024  287.27 0867.45
2013 04 18 16 33 39 .19     -91    307    111    321    340 343.5  19.2  34042  287.57 0867.45
2013 04 18 16 33 39 .44     -84    250    121    264    290 341.3  26.2  34040  287.53 0867.45
2013 04 18 16 33 39 .69      99    179    160    205    260  29.0  42.0  34038  287.50 0867.45
2013 04 18 16 33 39 .94     205    151     69    255    265  53.6  15.3  34042  287.56 0867.45
2013 04 18 16 33 40 .19      98     98     15    140    141  45.0   6.5  34042  287.57 0867.45
2013 04 18 16 33 40 .44     161     81     44    181    187  63.4  13.9  34038  287.52 0867.45
2013 04 18 16 33 40 .69     271    207    -28    342    344  52.6  -4.8  34032  287.40 0867.45
2013 04 18 16 33 40 .94     285    338    -73    443    450  40.1  -9.4  34022  287.24 0867.45
2013 04 18 16 33 41 .19     231    321    -92    396    407  35.7 -13.2  34020  287.19 0867.45
2013 04 18 16 33 41 .44     237    303    -84    385    395  38.0 -12.4  34016  287.15 0867.45
2013 04 18 16 33 41 .69     263    275    -85    381    391  43.8 -12.6  34018  287.18 0867.45
2013 04 18 16 33 41 .94     283    243    -63    374    380  49.4  -9.6  34016  287.15 0867.45
2013 04 18 16 33 42 .19     281    213    -67    353    360  52.8 -10.8  34018  287.17 0867.45
2013 04 18 16 33 42 .44     261    219    -79    341    351  50.0 -13.1  34016  287.15 0867.45
2013 04 18 16 33 42 .69     255    222    -57    339    344  49.0  -9.7  34020  287.20 0867.45
2013 04 18 16 33 42 .95     243    243    -75    345    354  45.0 -12.3  34018  287.18 0867.45
2013 04 18 16 33 43 .20     184    252    -84    313    325  36.1 -15.0  34024  287.28 0867.45
2013 04 18 16 33 43 .45     244    130    -93    277    293  62.0 -18.7  34028  287.34 0867.45
2013 04 18 16 33 43 .70     218    153    -82    267    279  54.9 -21.8  34028  287.33 0867.45
2013 04 18 16 33 43 .95      98    194     59    218    227  27.0  15.3  34020  287.21 0867.45
2013 04 18 16 33 44 .20     -41    204    -21    209    211 348.5  -6.0  34024  287.27 0867.45
2013 04 18 16 33 44 .45       0     87     62     88    107   0.5  39.5  34030  287.38 0867.45
2013 04 18 16 33 44 .70     145     86     34    169    173  59.1  11.6  34032  287.40 0867.45
2013 04 18 16 33 44 .95     177    214    -61    278    285  39.6 -12.4  34022  287.24 0867.45
2013 04 18 16 33 45 .21     160    219    -86    272    286  36.3 -17.5  34026  287.29 0867.45
2013 04 18 16 33 45 .46     131    182    -58    225    233  35.8 -14.5  34022  287.23 0867.45
2013 04 18 16 33 45 .71      46    187     25    193    195  14.0   7.5  34028  287.35 0867.45
2013 04 18 16 33 45 .96       8    199      0    200    201   2.5   0.2  34030  287.38 0867.45
2013 04 18 16 33 46 .20      25    329    -10    330    331   4.4  -1.9  34028  287.34 0867.45
2013 04 18 16 33 46 .45      69    206     -8    218    219  18.5  -2.2  34030  287.38 0867.45
2013 04 18 16 33 46 .70     259    152     37    301    304  59.6   7.1  34032  287.39 0867.45
2013 04 18 16 33 46 .95      92     78     53    121    132  49.6  25.1  34032  287.42 0867.45
2013 04 18 16 33 47 .21      24    184   -103    186    212   7.6 -35.8  34034  287.43 0867.45
2013 04 18 16 33 47 .46      46    223   -102    228    249  11.8 -30.3  34038  287.50 0867.45
2013 04 18 16 33 47 .71     213    155    -94    264    281  54.0 -19.7  34022  287.24 0867.45
2013 04 18 16 33 47 .96     197    132    -56    238    245  56.3 -13.3  34022  287.24 0867.45
2013 04 18 16 33 48 .21     217    129    -32    253    256  59.3  -7.3  34020  287.21 0867.45
2013 04 18 16 33 48 .46     212    135    -51    252    258  57.5 -11.6  34020  287.21 0867.45
2013 04 18 16 33 48 .71     199    135    -68    241    251  55.8 -15.8  34030  287.38 0867.45
2013 04 18 16 33 48 .96     207    123    -44    241    246  59.3 -10.5  34022  287.24 0867.45
2013 04 18 16 33 49 .21     201    136    -53    243    249  55.8 -12.4  34024  287.26 0867.45
2013 04 18 16 33 49 .46     206    120    -57    239    246  59.8 -13.4  34024  287.28 0867.45
2013 04 18 16 33 49 .71     188     89    -37    209    213  64.7 -10.3  34028  287.33 0867.45
2013 04 18 16 33 49 .96     182     91    -45    204    210  63.4 -12.6  34030  287.37 0867.45
2013 04 18 16 33 50 .21     119    124    -33    173    177  43.9 -10.9  34030  287.38 0867.45
2013 04 18 16 33 50 .47      97    115     35    151    156  40.1  13.2  34030  287.37 0867.45
2013 04 18 16 33 50 .73     134    100     57    168    178  53.1  18.9  34032  287.42 0867.45
2013 04 18 16 33 50 .98     175     72     76    190    204  67.6  23.0  34036  287.49 0867.45
2013 04 18 16 33 51 .22     196    106     83    223    237  61.6  21.3  34036  287.46 0867.45
2013 04 18 16 33 51 .48      76    185    -33    201    204  22.5  -9.4  34036  287.47 0867.45
2013 04 18 16 33 51 .73      64    148    -31    162    166  23.4 -10.9  34034  287.43 0867.45
2013 04 18 16 33 51 .98     126     96     26    159    162  52.7   9.3  34036  287.47 0867.45
2013 04 18 16 33 52 .23     209     63     66    219    229  73.1  16.8  34040  287.55 0867.45
2013 04 18 16 33 52 .48     262     42     37    266    269  80.8   8.0  34046  287.65 0867.45
2013 04 18 16 33 52 .73     246     97     95    265    281  68.3  20.4  34040  287.53 0867.45
2013 04 18 16 33 52 .98     206    122    113    240    265  59.4  27.1  34042  287.58 0867.45
2013 04 18 16 33 53 .23     222    184     52    289    294  50.4  10.3  34044  287.60 0867.45
2013 04 18 16 33 53 .48     233    168     23    288    289  54.1   4.6  34032  287.39 0867.45
2013 04 18 16 33 53 .73     290    139     25    322    324  64.2   4.5  34022  287.24 0867.45
2013 04 18 16 33 53 .98     279    117     13    303    304  67.2   2.5  34032  287.39 0867.45
2013 04 18 16 33 54 .23     271    103    -22    291    292  69.1  -4.4  34038  287.51 0867.45
2013 04 18 16 33 54 .48     180    104     10    208    209  60.0   2.8  34034  287.45 0867.45
2013 04 18 16 33 54 .73      75    227     -2    240    241  18.3  -0.5  34040  287.53 0867.45
2013 04 18 16 33 54 .98      87    162     -5    184    185  28.3  -1.8  34038  287.52 0867.45
2013 04 18 16 33 55 .23      96    109     24    146    149  41.5   9.5  34036  287.47 0867.45
2013 04 18 16 33 55 .49      77    101      2    128    129  37.4   1.2  34038  287.50 0867.45
2013 04 18 16 33 55 .74      79    173     37    191    195  24.5  11.1  34028  287.33 0867.45
2013 04 18 16 33 55 .99     115     38    185    122    221  71.8  63.9  34044  287.60 0867.45
2013 04 18 16 33 56 .24      32    193    184    196    268   9.6  48.0  34036  287.46 0867.45
2013 04 18 16 33 56 .49     -19    256    111    257    279 355.6  25.1  34042  287.56 0867.45
2013 04 18 16 33 56 .74      39    235     81    239    253   9.6  18.9  34040  287.53 0867.45
2013 04 18 16 33 56 .99     147    142    167    205    264  46.0  43.7  34042  287.56 0867.45
2013 04 18 16 33 57 .24     202    204    148    288    323  44.8  29.3  34038  287.50 0867.45
2013 04 18 16 33 57 .50     211    198     42    290    294  46.8   8.2  34036  287.46 0867.45
2013 04 18 16 33 57 .75     201    243     32    316    318  39.6   5.9  34028  287.34 0867.45
2013 04 18 16 33 58 .00     176    268    -40    321    324  33.4  -7.2  34024  287.26 0867.45
2013 04 18 16 33 58 .25     162    238    -44    289    293  34.3  -8.8  34018  287.16 0867.46
2013 04 18 16 33 58 .50     193    248    -17    315    316  37.9  -3.1  34020  287.19 0867.46
2013 04 18 16 33 58 .75     185    253      4    314    315  36.1   0.9  34018  287.16 0867.46
2013 04 18 16 33 59 .00     190    227      2    297    298  39.9   0.5  34020  287.19 0867.46
2013 04 18 16 33 59 .25     170    241    -32    295    297  35.2  -6.2  34022  287.24 0867.46
2013 04 18 16 33 59 .51     206    231    -44    310    314  41.7  -8.1  34024  287.28 0867.46
2013 04 18 16 33 59 .76     225     94     19    245    246  67.3   4.6  34028  287.34 0867.46
2013 04 18 16 34 00 .01     166     56    127    176    217  71.4  39.5  34030  287.38 0867.46
2013 04 18 16 34 00 .26     149    123    129    194    232  50.5  36.5  34040  287.54 0867.45
2013 04 18 16 34 00 .51     124    120     53    173    182  46.0  17.1  34034  287.45 0867.45
2013 04 18 16 34 00 .76     111    195    -25    225    227  29.6  -6.5  34030  287.38 0867.45
2013 04 18 16 34 01 .01      86    163    -18    185    186  27.9  -5.6  34028  287.33 0867.45
2013 04 18 16 34 01 .26      76    120    -34    143    147  32.5 -13.4  34028  287.35 0867.45
2013 04 18 16 34 01 .51      83     88    -18    121    123  43.3  -8.8  34026  287.32 0867.45
2013 04 18 16 34 01 .76      84     39    -21     93     96  64.7 -12.9  34022  287.25 0867.45
2013 04 18 16 34 02 .01      79     32      2     86     87  67.8   1.8  34024  287.27 0867.45
2013 04 18 16 34 02 .26      33     45     -2     56     57  36.1  -2.2  34028  287.33 0867.45
2013 04 18 16 34 02 .51      23      4     37     24     44  80.3  63.6  34038  287.50 0867.45
2013 04 18 16 34 02 .76      -6     53     46     54     70 352.9  43.8  34040  287.55 0867.45
2013 04 18 16 34 03 .01      22     50     68     55     87  23.6  56.9  34038  287.52 0867.45
2013 04 18 16 34 03 .26      33     70      2     78     79  25.3   1.8  34034  287.45 0867.45
2013 04 18 16 34 03 .51     173    114    -34    208    211  56.5  -9.3  34030  287.37 0867.45
2013 04 18 16 34 03 .76     182    148    -34    235    238  50.9  -8.3  34028  287.34 0867.45
2013 04 18 16 34 04 .02     222    195    -34    296    299  48.7  -6.7  34030  287.38 0867.45
2013 04 18 16 34 04 .27     199    202    -36    284    287  44.5  -7.3  34026  287.29 0867.45
2013 04 18 16 34 04 .54     191    197    -45    275    279  44.1  -9.3  34028  287.33 0867.45
2013 04 18 16 34 04 .78     199    102     -8    224    225  62.7  -2.2  34034  287.43 0867.45
2013 04 18 16 34 05 .02     189     72     57    203    211  68.9  15.8  34032  287.40 0867.45
2013 04 18 16 34 05 .28     213     97     83    235    250  65.6  19.6  34032  287.41 0867.45
2013 04 18 16 34 05 .53     191    157     85    248    263  50.5  18.9  34032  287.39 0867.45
2013 04 18 16 34 05 .78     173    143     57    225    233  50.4  14.3  34028  287.35 0867.45
2013 04 18 16 34 06 .03     216    132     35    254    257  58.5   8.0  34034  287.43 0867.45
2013 04 18 16 34 06 .28     192     98     19    216    217  62.9   5.2  34034  287.45 0867.45
2013 04 18 16 34 06 .53     204     81     50    220    226  68.2  12.9  34034  287.43 0867.45
2013 04 18 16 34 06 .78     178    124     90    218    235  55.1  23.8  34034  287.45 0867.45
2013 04 18 16 34 07 .03     230    172     14    288    289  53.1   2.8  34032  287.39 0867.45
2013 04 18 16 34 07 .28     238    138     31    276    278  59.8   6.5  34030  287.38 0867.45
2013 04 18 16 34 07 .53     209    152      7    259    260  54.0   1.6  34030  287.38 0867.45
2013 04 18 16 34 07 .78     290    193    -28    349    351  56.3  -4.6  34028  287.35 0867.45
2013 04 18 16 34 08 .04     226    187     20    294    295  50.5   3.9  34028  287.33 0867.45
2013 04 18 16 34 08 .28     194    139     19    239    240  54.3   4.6  34028  287.34 0867.45
2013 04 18 16 34 08 .54     149    180     -1    235    236  39.6  -0.3  34032  287.39 0867.45
2013 04 18 16 34 08 .79     122    147    -13    192    193  39.6  -4.1  34030  287.38 0867.45
2013 04 18 16 34 09 .04     176    104     52    205    212  59.3  14.3  34034  287.43 0867.45
2013 04 18 16 34 09 .29     213     85      4    230    231  68.2   1.2  34030  287.38 0867.45
2013 04 18 16 34 09 .54     195     96     31    218    221  63.8   8.2  34032  287.42 0867.45
2013 04 18 16 34 09 .79     161     93     19    187    188  60.0   5.9  34036  287.47 0867.45
2013 04 18 16 34 10 .04      90    139     58    166    177  33.0  19.4  34030  287.38 0867.45
2013 04 18 16 34 10 .29      42    104     54    113    125  22.3  27.2  34038  287.52 0867.45
2013 04 18 16 34 10 .54      31    141     -2    145    146  12.5  -1.2  34030  287.38 0867.45
2013 04 18 16 34 10 .79      54    138    -13    149    150  21.4  -5.2  34032  287.42 0867.45
2013 04 18 16 34 11 .04      75    203     -4    217    218  20.3  -1.2  34038  287.52 0867.45
2013 04 18 16 34 11 .30     132    123      7    181    182  47.1   2.5  34040  287.54 0867.45
2013 04 18 16 34 11 .55     153    161     17    223    224  43.4   4.4  34032  287.42 0867.45
2013 04 18 16 34 11 .80     170    140      3    221    222  50.5   0.8  34028  287.35 0867.45
2013 04 18 16 34 12 .05     158    151    -24    219    221  46.2  -6.5  34022  287.23 0867.45
2013 04 18 16 34 12 .30     146    118    -41    188    193  51.1 -12.4  34026  287.32 0867.45
2013 04 18 16 34 12 .55     178     84    -34    198    201  64.6  -9.8  34032  287.40 0867.45
2013 04 18 16 34 12 .81     151    151     62    214    223  45.1  16.3  34034  287.45 0867.45
2013 04 18 16 34 13 .06     162    162     58    230    238  45.0  14.3  34038  287.51 0867.45
2013 04 18 16 34 13 .31     154    117     66    194    206  52.9  18.9  34038  287.50 0867.45
2013 04 18 16 34 13 .56     204     93     68    225    236  65.6  16.8  34036  287.47 0867.45
2013 04 18 16 34 13 .81     148    167     67    224    234  41.4  16.8  34032  287.40 0867.45
2013 04 18 16 34 14 .06     176    201     87    268    282  41.2  18.1  34030  287.38 0867.45
2013 04 18 16 34 14 .31     141    199     85    245    260  35.4  19.2  34034  287.43 0867.45
2013 04 18 16 34 14 .56     118    199     63    232    241  30.7  15.3  34036  287.46 0867.45
2013 04 18 16 34 14 .81     176    170     19    246    247  46.0   4.6  34036  287.46 0867.44
2013 04 18 16 34 15 .06      63    187     69    198    210  18.7  19.4  34032  287.42 0867.44
2013 04 18 16 34 15 .31      85    170     63    191    202  26.7  18.4  34032  287.42 0867.44
2013 04 18 16 34 15 .56      48    120     16    130    132  21.8   7.1  34032  287.40 0867.44
2013 04 18 16 34 15 .81     174    111     -8    207    208  57.5  -2.3  34030  287.38 0867.44
2013 04 18 16 34 16 .06     204    142      2    249    250  55.1   0.5  34024  287.26 0867.44
2013 04 18 16 34 16 .32     236    112     -1    262    263  64.6  -0.3  34028  287.33 0867.44
2013 04 18 16 34 16 .56     278    102     18    297    298  69.8   3.6  34026  287.31 0867.44
2013 04 18 16 34 16 .81     258    109     14    281    282  67.2   2.9  34020  287.21 0867.44
2013 04 18 16 34 17 .06     250    102     27    270    272  67.8   5.9  34022  287.24 0867.44
2013 04 18 16 34 17 .31     212     90     11    231    232  66.9   2.9  34026  287.32 0867.44
2013 04 18 16 34 17 .56     213    122     -9    246    247  60.2  -2.2  34024  287.26 0867.44
2013 04 18 16 34 17 .82     195    124    -21    232    233  57.5  -5.2  34026  287.30 0867.44
2013 04 18 16 34 18 .07     210     42     10    215    216  78.5   2.8  34034  287.43 0867.44
2013 04 18 16 34 18 .33     248     34    -55    251    258  82.1 -12.4  34024  287.26 0867.44
2013 04 18 16 34 18 .58     257     -3    -23    258    260  90.8  -5.2  34030  287.38 0867.44
2013 04 18 16 34 18 .83     189    -23     -4    191    192  97.0  -1.3  34028  287.33 0867.44
2013 04 18 16 34 19 .08     166    -35    -13    170    171 102.2  -4.6  34032  287.40 0867.44
2013 04 18 16 34 19 .33     102    -14     35    104    110  98.0  18.9  34036  287.47 0867.44
2013 04 18 16 34 19 .58     135     -1     -1    136    137  90.8  -0.7  34036  287.47 0867.44
2013 04 18 16 34 19 .83     141     28    -41    144    150  78.5 -16.0  34036  287.49 0867.44
2013 04 18 16 34 20 .08     130     22    -29    132    136  80.3 -12.4  34036  287.47 0867.44
2013 04 18 16 34 20 .33     205    -41    -41    210    215 101.5 -11.1  34026  287.30 0867.44
2013 04 18 16 34 20 .58     200    -45      0    206    207 102.8   0.0  34028  287.33 0867.44
2013 04 18 16 34 20 .83     193    -13    -30    194    197  94.1  -9.0  34020  287.20 0867.44
2013 04 18 16 34 21 .08     190      0    -34    191    195  90.1 -10.1  34018  287.18 0867.44
2013 04 18 16 34 21 .33     198     -3    -25    199    201  90.9  -7.3  34020  287.20 0867.45
2013 04 18 16 34 21 .58     217     10    -21    218    220  87.2  -5.6  34020  287.20 0867.45
2013 04 18 16 34 21 .83     191     11    -69    192    205  86.7 -19.7  34020  287.20 0867.45
2013 04 18 16 34 22 .09     236     26    -32    238    241  83.6  -7.7  34026  287.31 0867.45
2013 04 18 16 34 22 .34     231    -18     11    232    233  94.6   2.9  34024  287.28 0867.45
2013 04 18 16 34 22 .58     175    -15     -5    176    177  95.0  -1.8  34022  287.23 0867.45
2013 04 18 16 34 22 .84     190    -31    -32    193    196  99.5  -9.6  34018  287.18 0867.45
2013 04 18 16 34 23 .09     206    -15    -65    207    218  94.4 -17.6  34022  287.23 0867.45
2013 04 18 16 34 23 .34      80     88    -19    120    122  42.3  -9.3  34028  287.33 0867.45
2013 04 18 16 34 23 .59      35      3   -103     36    109  83.9 -85.6  34036  287.49 0867.45
2013 04 18 16 34 23 .84       0    -48    -19     49     52 180.0 -26.4  34030  287.37 0867.45
2013 04 18 16 34 24 .09      49    -93    -11    106    107 152.4  -6.2  34034  287.43 0867.45
2013 04 18 16 34 24 .34     113     18     -2    115    116  80.8  -1.2  34038  287.50 0867.45
2013 04 18 16 34 24 .59     100     26    -36    104    110  75.4 -23.3  34046  287.65 0867.45
2013 04 18 16 34 24 .84      62    -29    -84     69    108 115.4 -60.8  34038  287.52 0867.45
2013 04 18 16 34 25 .10      31    -71    -70     78    104 156.4 -51.3  34028  287.35 0867.44
2013 04 18 16 34 25 .35      33   -107    -41    113    120 162.6 -25.3  34036  287.49 0867.44
2013 04 18 16 34 25 .60      81    -19    -41     84     93 103.7 -31.7  34040  287.54 0867.44
2013 04 18 16 34 25 .85     163     -8    -25    164    166  93.0  -8.8  34030  287.37 0867.44
2013 04 18 16 34 26 .10     180     16    -13    181    182  84.8  -4.4  34022  287.25 0867.44
2013 04 18 16 34 26 .35     173     21    -29    175    178  82.8  -9.6  34026  287.30 0867.44
2013 04 18 16 34 26 .61     185     64    -46    196    202  70.9 -13.4  34024  287.27 0867.44
2013 04 18 16 34 26 .86     113      1    -31    114    119  89.2 -15.4  34030  287.38 0867.44
2013 04 18 16 34 27 .11      69    -27     65     75     99 111.7  45.4  34034  287.43 0867.44
2013 04 18 16 34 27 .36      75     30     98     81    127  68.2  56.3  34042  287.57 0867.44
2013 04 18 16 34 27 .61       2     37     77     38     85   4.5  71.9  34058  287.84 0867.44
2013 04 18 16 34 27 .86      85      7     82     86    118  84.8  49.0  34048  287.67 0867.44
2013 04 18 16 34 28 .11      75    -21     11     78     79 105.9   8.5  34036  287.47 0867.44
2013 04 18 16 34 28 .36      57    -38     58     69     90 124.2  43.8  34044  287.62 0867.44
2013 04 18 16 34 28 .61     100    -13     63    101    119  97.9  35.5  34042  287.57 0867.45
2013 04 18 16 34 28 .86      51    -72     56     89    105 144.8  35.5  34040  287.55 0867.45
2013 04 18 16 34 29 .11      72    -25     56     77     95 109.1  39.7  34034  287.43 0867.45
2013 04 18 16 34 29 .36     140     33     18    144    146  76.7   7.1  34028  287.35 0867.45
2013 04 18 16 34 29 .61     133     -9      4    134    135  94.3   1.8  34026  287.32 0867.45
2013 04 18 16 34 29 .86      91    -11    -39     92     99  97.5 -28.5  34020  287.20 0867.45
2013 04 18 16 34 30 .11      85     -4    -24     86     89  93.0 -20.7  34024  287.28 0867.45
2013 04 18 16 34 30 .36      59      0    -20     60     63  90.0 -23.6  34022  287.23 0867.45
2013 04 18 16 34 30 .61      62      8    -22     63     67  82.1 -19.7  34020  287.21 0867.45
2013 04 18 16 34 30 .87      62     -8    -22     63     67  97.9 -19.6  34022  287.25 0867.45
2013 04 18 16 34 31 .11      54     -8    -16     55     58  98.8 -16.6  34022  287.25 0867.45
2013 04 18 16 34 31 .36      55      0    -16     56     59  90.0 -16.6  34022  287.25 0867.45
2013 04 18 16 34 31 .61      57      1    -12     58     60  88.3 -12.4  34022  287.23 0867.45
2013 04 18 16 34 31 .86      65      5     -6     66     67  85.6  -5.2  34022  287.25 0867.45
2013 04 18 16 34 32 .13      57      8    -12     58     60  81.2 -12.4  34024  287.28 0867.45
2013 04 18 16 34 32 .38      60      4    -12     61     63  85.6 -11.3  34022  287.25 0867.45
2013 04 18 16 34 32 .63      49      5     -5     50     51  83.9  -6.2  34022  287.25 0867.45
2013 04 18 16 34 32 .88      61      0     -2     62     63  89.1  -2.2  34020  287.20 0867.45
2013 04 18 16 34 33 .13      61     17     -2     64     65  74.1  -2.2  34022  287.25 0867.45
2013 04 18 16 34 33 .38      33     33     -6     47     48  45.1  -7.3  34028  287.33 0867.45
2013 04 18 16 34 33 .63      31     12    -15     34     37  68.3 -29.5  34028  287.33 0867.45
2013 04 18 16 34 33 .88      29     25    -11     39     41  48.7 -16.6  34024  287.28 0867.45
2013 04 18 16 34 34 .13      32     29    -28     44     52  47.8 -39.9  34028  287.33 0867.45
2013 04 18 16 34 34 .38      30     16    -23     35     41  61.1 -40.9  34030  287.38 0867.45
2013 04 18 16 34 34 .63      31     14    -14     35     37  64.8 -25.4  34030  287.38 0867.45
2013 04 18 16 34 34 .88      29      9    -16     31     34  71.6 -33.7  34032  287.42 0867.45
2013 04 18 16 34 35 .13      29      2    -16     30     34  85.7 -33.7  34026  287.30 0867.45
2013 04 18 16 34 35 .39      23      6    -17     24     29  74.9 -42.0  34032  287.40 0867.45
2013 04 18 16 34 35 .63      13     -1    -19     14     23  97.9 -62.9  34036  287.49 0867.45
2013 04 18 16 34 35 .89       7     -6    -18     10     20 133.1 -73.2  34048  287.69 0867.45
2013 04 18 16 34 36 .13       8     -5    -13     10     16 122.4 -64.9  34050  287.72 0867.45
2013 04 18 16 34 36 .38       7    -11    -12     14     18 147.5 -56.4  34044  287.62 0867.45
2013 04 18 16 34 36 .63       6    -20    -12     22     25 161.5 -37.9  34038  287.52 0867.45
2013 04 18 16 34 36 .89       4    -24     -8     25     26 170.2 -23.8  34036  287.47 0867.45
2013 04 18 16 34 37 .14       5    -17    -14     18     22 161.3 -48.1  34050  287.70 0867.45
2013 04 18 16 34 37 .39       7     -8     -6     11     12 140.4 -35.8  34066  287.98 0867.45
2013 04 18 16 34 37 .64       2      0      0      3      4  94.4  -2.2  34056  287.81 0867.45
2013 04 18 16 34 37 .89       3    -11      3     12     13 164.9  15.3  34052  287.76 0867.45
2013 04 18 16 34 38 .14       0    -19      4     20     21 182.7  13.2  34036  287.47 0867.45
2013 04 18 16 34 38 .39      -2    -16      9     17     19 188.0  31.4  34038  287.52 0867.45
2013 04 18 16 34 38 .64     -15    -21     11     26     28 216.1  21.0  34040  287.54 0867.44
2013 04 18 16 34 38 .89     -10    -18      7     21     23 210.7  18.9  34036  287.47 0867.44
2013 04 18 16 34 39 .15     -11    -17      7     21     23 214.3  18.9  34036  287.49 0867.44
2013 04 18 16 34 39 .40      -5    -20      7     21     23 195.1  19.4  34040  287.54 0867.44
2013 04 18 16 34 39 .65      -7    -22     13     24     27 198.3  31.4  34046  287.64 0867.44
2013 04 18 16 34 39 .90      -3    -16      9     17     19 191.6  31.4  34052  287.74 0867.44
2013 04 18 16 34 40 .15       0    -20     12     21     24 182.7  31.4  34052  287.76 0867.44
2013 04 18 16 34 40 .40      -5    -21     14     22     26 195.1  35.5  34052  287.74 0867.44
2013 04 18 16 34 40 .65      -6    -20      8     21     22 196.9  21.0  34040  287.54 0867.44
2013 04 18 16 34 40 .90     -12    -16      0     21     22 217.8  -2.2  34032  287.42 0867.44
2013 04 18 16 34 41 .15     -14    -20     -1     25     26 216.1  -2.2  34030  287.38 0867.44
2013 04 18 16 34 41 .41     -13    -23     -1     27     28 209.0  -2.2  34032  287.42 0867.44
2013 04 18 16 34 41 .66     -23    -26      1     36     37 221.4   2.8  34034  287.43 0867.44
2013 04 18 16 34 41 .91     -19    -19      5     28     29 225.0  11.1  34036  287.49 0867.44
2013 04 18 16 34 42 .16     -10    -19      2     22     23 207.2   6.9  34044  287.60 0867.44
2013 04 18 16 34 42 .41     -11    -16      0     20     21 216.1   0.8  34048  287.67 0867.44
2013 04 18 16 34 42 .66     -16     -6     -3     18     19 248.3 -11.3  34048  287.67 0867.44
2013 04 18 16 34 42 .91     -11      0    -12     12     16 269.2 -54.5  34048  287.69 0867.44
2013 04 18 16 34 43 .16      -1    -24    -10     25     26 184.5 -25.4  34052  287.76 0867.44
2013 04 18 16 34 43 .41       0    -15      0     16     17 182.7  -2.2  34036  287.47 0867.44
2013 04 18 16 34 43 .66       1    -11      1     12     13 172.0   6.9  34036  287.49 0867.44
2013 04 18 16 34 43 .91      15    -12      2     20     21 129.5   6.9  34040  287.54 0867.43
2013 04 18 16 34 44 .16      13    -13      3     19     20 136.6  11.1  34040  287.54 0867.43
2013 04 18 16 34 44 .41       6    -10      0     13     14 147.5  -2.2  34042  287.57 0867.43
2013 04 18 16 34 44 .66       7    -11     -6     14     15 147.5 -27.4  34042  287.59 0867.43
2013 04 18 16 34 44 .91       2     -8     -8      9     12 161.7 -52.3  34042  287.57 0867.43
2013 04 18 16 34 45 .17       1     -4     -3      5      5 161.5 -39.9  34042  287.57 0867.43
2013 04 18 16 34 45 .41       4      0     -7      5      8  90.0 -60.8  34044  287.60 0867.43
2013 04 18 16 34 45 .67       4      3     -7      6      9  50.5 -52.6  34048  287.67 0867.43
2013 04 18 16 34 45 .91       7      8    -12     11     16  39.6 -52.6  34058  287.84 0867.43
2013 04 18 16 34 46 .18       2      8    -10      9     13  18.5 -52.6  34052  287.76 0867.43
2013 04 18 16 34 46 .43       2      2    -10      4     10  45.0 -81.5  34056  287.81 0867.43
2013 04 18 16 34 46 .68       2     -4    -16      5     16 147.5 -85.1  34058  287.84 0867.43
2013 04 18 16 34 46 .93      16     16    -24     24     33  45.0 -54.5  34044  287.60 0867.43
2013 04 18 16 34 47 .18      17     34    -16     39     42  27.2 -27.4  34038  287.52 0867.43
2013 04 18 16 34 47 .43      18     31    -23     37     43  30.7 -39.9  34042  287.59 0867.43
2013 04 18 16 34 47 .68       9     29    -16     31     34  18.7 -33.7  34042  287.57 0867.43
2013 04 18 16 34 47 .93      11     25     -8     28     29  23.6 -23.8  34038  287.50 0867.43
2013 04 18 16 34 48 .18      22     14    -10     27     28  57.6 -23.3  34036  287.49 0867.43
2013 04 18 16 34 48 .44      29      8      1     31     32  73.2   2.9  34036  287.49 0867.43
2013 04 18 16 34 48 .69      34      2     -5     35     36  85.7  -9.3  34034  287.43 0867.43
2013 04 18 16 34 48 .94      41     13    -12     44     45  71.6 -20.7  34036  287.47 0867.43
2013 04 18 16 34 49 .20      33     26     -1     43     44  52.2  -2.2  34042  287.57 0867.43
2013 04 18 16 34 49 .45      17     12      0     22     23  54.0  -2.2  34042  287.59 0867.43
2013 04 18 16 34 49 .70      12     -1    -25     13     28  97.9 -75.2  34050  287.72 0867.43
2013 04 18 16 34 49 .94      -1     -8    -16      9     18 191.6 -73.2  34060  287.89 0867.43
2013 04 18 16 34 50 .20       7    -11    -12     14     18 147.5 -56.4  34048  287.67 0867.43
2013 04 18 16 34 50 .45       4    -23     -2     24     25 168.4  -5.2  34058  287.86 0867.43
2013 04 18 16 34 50 .70      15    -16     14     22     26 136.8  35.5  34048  287.67 0867.43
2013 04 18 16 34 50 .95      27     -9     20     29     35 108.6  35.6  34056  287.81 0867.43
2013 04 18 16 34 51 .20      19    -10     18     22     28 117.1  45.8  34070  288.06 0867.43
2013 04 18 16 34 51 .45      15      1     23     16     28  85.7  62.6  34080  288.21 0867.43
2013 04 18 16 34 51 .70      25      9     32     27     41  68.3  55.4  34060  287.89 0867.43
2013 04 18 16 34 51 .95      28     13     21     32     38  64.6  35.6  34056  287.81 0867.43
2013 04 18 16 34 52 .20      23     16      5     29     30  55.8  11.1  34054  287.77 0867.43
2013 04 18 16 34 52 .45      17     26     16     32     35  32.5  27.3  34050  287.70 0867.43
2013 04 18 16 34 52 .70      19     21     18     29     34  41.4  35.5  34048  287.67 0867.43
2013 04 18 16 34 52 .96      27     12     21     30     36  64.7  37.6  34066  287.98 0867.43
2013 04 18 16 34 53 .20      27      5     20     28     34  78.5  37.6  34072  288.08 0867.43
2013 04 18 16 34 53 .45      30      2     16     31     34  85.6  29.3  34058  287.86 0867.43
2013 04 18 16 34 53 .70      23      0     16     24     28  90.0  35.6  34058  287.86 0867.43
2013 04 18 16 34 53 .96      27    -14     18     31     35 117.1  35.5  34064  287.94 0867.43
2013 04 18 16 34 54 .21      39    -13     31     42     52 108.4  40.7  34070  288.04 0867.43
2013 04 18 16 34 54 .46      34    -16     32     38     49 115.4  43.8  34070  288.06 0867.43
2013 04 18 16 34 54 .71      47      0     32     48     57  90.8  35.6  34064  287.94 0867.43
2013 04 18 16 34 54 .96      44      1     36     45     57  88.3  43.7  34064  287.94 0867.43
2013 04 18 16 34 55 .22      37     -7     42     38     56 101.5  52.2  34072  288.08 0867.43
2013 04 18 16 34 55 .47      49     -3     41     50     64  94.4  43.7  34070  288.04 0867.43
2013 04 18 16 34 55 .72      57     -7     39     58     69  97.9  36.5  34064  287.96 0867.43
2013 04 18 16 34 55 .97      62      0     27     63     68  89.2  24.1  34054  287.79 0867.43
2013 04 18 16 34 56 .22      59    -16     25     62     66 105.1  23.0  34060  287.87 0867.43
2013 04 18 16 34 56 .47      55     -7     27     56     62  97.9  27.2  34054  287.79 0867.43
2013 04 18 16 34 56 .72      55     -7     20     56     59  97.9  20.0  34050  287.70 0867.43
2013 04 18 16 34 56 .97      49      2     17     50     54  87.4  19.2  34050  287.72 0867.43
2013 04 18 16 34 57 .22      47      0     25     48     54  90.0  28.2  34056  287.81 0867.43
2013 04 18 16 34 57 .47      38     -2     25     39     46  94.4  35.6  34052  287.76 0867.43
2013 04 18 16 34 57 .73      46     21     10     51     52  64.6  11.1  34046  287.65 0867.43
2013 04 18 16 34 57 .97      46     29      2     55     56  57.6   2.9  34046  287.64 0867.43
2013 04 18 16 34 58 .22      44     27      1     52     53  58.5   1.8  34046  287.65 0867.43
2013 04 18 16 34 58 .48      43     29     -1     52     53  55.8  -1.3  34048  287.67 0867.43
2013 04 18 16 34 58 .73      41     37     -2     56     57  47.8  -2.2  34044  287.62 0867.43
2013 04 18 16 34 58 .98      29     40    -13     50     52  36.1 -15.4  34046  287.65 0867.43
2013 04 18 16 34 59 .23      46     29      2     55     56  57.6   2.9  34048  287.67 0867.43
2013 04 18 16 34 59 .48      45     13     32     47     56  73.2  36.5  34050  287.72 0867.43
2013 04 18 16 34 59 .73      55     30     41     63     75  61.1  35.6  34064  287.94 0867.43
2013 04 18 16 34 59 .98      54     34     39     64     74  57.6  35.5  34056  287.81 0867.43
2013 04 18 16 35 00 .23      69     38     34     79     86  61.2  24.6  34050  287.70 0867.43
2013 04 18 16 35 00 .48      68     31     34     75     82  65.6  25.7  34056  287.81 0867.43
2013 04 18 16 35 00 .73      67     32     32     75     81  64.6  24.1  34048  287.67 0867.43
